<?xml version='1.0' encoding='UTF-8'?><gpx version="1.1" creator="JPX - https://github.com/jenetics/jpx" xmlns="http://www.topografix.com/GPX/1/1"><trk><trkseg><trkpt lat="44.98235574739484" lon="-0.6034919999942072"><ele>11.0</ele><time>2026-03-31T12:00:08.503Z</time></trkpt><trkpt lat="44.98245602122324" lon="-0.6032199328156068"><ele>11.0</ele><time>2026-03-31T12:00:09.453Z</time></trkpt><trkpt lat="44.98246968027822" lon="-0.603308708963541"><ele>11.0</ele><time>2026-03-31T12:00:18.003Z</time></trkpt><trkpt lat="44.98243451411639" lon="-0.6033869669242604"><ele>11.0</ele><time>2026-03-31T12:00:21.003Z</time></trkpt><trkpt lat="44.9824423105183" lon="-0.6034876961726652"><ele>11.0</ele><time>2026-03-31T12:00:36.003Z</time></trkpt><trkpt lat="44.98244134781601" lon="-0.6035924410259044"><ele>11.0</ele><time>2026-03-31T12:00:40.003Z</time></trkpt><trkpt lat="44.98243701455231" lon="-0.6036839372065431"><ele>11.0</ele><time>2026-03-31T12:00:46.003Z</time></trkpt><trkpt lat="44.982456830806925" lon="-0.6037767514582625"><ele>11.0</ele><time>2026-03-31T12:00:54.003Z</time></trkpt><trkpt lat="44.982484725448536" lon="-0.6038666519987718"><ele>11.0</ele><time>2026-03-31T12:01:00.003Z</time></trkpt><trkpt lat="44.982539144975114" lon="-0.6039186796578411"><ele>11.0</ele><time>2026-03-31T12:01:08.003Z</time></trkpt><trkpt lat="44.98261017510631" lon="-0.6039253958411721"><ele>11.0</ele><time>2026-03-31T12:01:15.003Z</time></trkpt><trkpt lat="44.982674999043695" lon="-0.6039062314649792"><ele>11.0</ele><time>2026-03-31T12:01:20.003Z</time></trkpt><trkpt lat="44.982744576975165" lon="-0.6038596323271276"><ele>10.714285714285715</ele><time>2026-03-31T12:01:27.003Z</time></trkpt><trkpt lat="44.982813267441195" lon="-0.6038553327361628"><ele>10.428571428571429</ele><time>2026-03-31T12:01:33.003Z</time></trkpt><trkpt lat="44.98288724313682" lon="-0.6038644711302438"><ele>10.142857142857142</ele><time>2026-03-31T12:01:40.003Z</time></trkpt><trkpt lat="44.98295433902109" lon="-0.6038684463122439"><ele>9.857142857142858</ele><time>2026-03-31T12:01:46.003Z</time></trkpt><trkpt lat="44.98302307085284" lon="-0.6038691073804293"><ele>9.571428571428571</ele><time>2026-03-31T12:01:51.003Z</time></trkpt><trkpt lat="44.98308829909499" lon="-0.6038681109354187"><ele>9.285714285714286</ele><time>2026-03-31T12:01:56.003Z</time></trkpt><trkpt lat="44.98315993693343" lon="-0.6038735427419387"><ele>9.0</ele><time>2026-03-31T12:02:02.003Z</time></trkpt><trkpt lat="44.98322286354225" lon="-0.6038775786081757"><ele>9.000000000000002</ele><time>2026-03-31T12:02:08.003Z</time></trkpt><trkpt lat="44.98329308594114" lon="-0.6039055359032269"><ele>9.0</ele><time>2026-03-31T12:02:15.003Z</time></trkpt><trkpt lat="44.983369197189084" lon="-0.6039096902960723"><ele>9.0</ele><time>2026-03-31T12:02:20.003Z</time></trkpt><trkpt lat="44.98343333224763" lon="-0.6039258924261336"><ele>9.0</ele><time>2026-03-31T12:02:26.003Z</time></trkpt><trkpt lat="44.98350348787189" lon="-0.6039411257377396"><ele>9.0</ele><time>2026-03-31T12:02:33.002Z</time></trkpt><trkpt lat="44.98358103958219" lon="-0.6039658879510318"><ele>9.000000000000002</ele><time>2026-03-31T12:02:39.002Z</time></trkpt><trkpt lat="44.98364553462552" lon="-0.6039662153777402"><ele>9.0</ele><time>2026-03-31T12:02:44.002Z</time></trkpt><trkpt lat="44.983711113316964" lon="-0.6039684653510733"><ele>8.857142857142858</ele><time>2026-03-31T12:02:49.002Z</time></trkpt><trkpt lat="44.98378456829404" lon="-0.6039731649168764"><ele>8.714285714285715</ele><time>2026-03-31T12:02:54.002Z</time></trkpt><trkpt lat="44.98386113479486" lon="-0.6039712451099525"><ele>8.571428571428571</ele><time>2026-03-31T12:03:01.002Z</time></trkpt><trkpt lat="44.983927417610786" lon="-0.6039874028374836"><ele>8.428571428571429</ele><time>2026-03-31T12:03:06.002Z</time></trkpt><trkpt lat="44.983997788164956" lon="-0.6039988831968242"><ele>8.285714285714285</ele><time>2026-03-31T12:03:12.002Z</time></trkpt><trkpt lat="44.984073133428446" lon="-0.6040074348806799"><ele>8.142857142857142</ele><time>2026-03-31T12:03:18.002Z</time></trkpt><trkpt lat="44.984144724086214" lon="-0.604016336193384"><ele>8.0</ele><time>2026-03-31T12:03:23.002Z</time></trkpt><trkpt lat="44.984219294028975" lon="-0.6040348520929515"><ele>7.857142857142857</ele><time>2026-03-31T12:03:29.002Z</time></trkpt><trkpt lat="44.984282915723945" lon="-0.6040581795322189"><ele>7.7142857142857135</ele><time>2026-03-31T12:03:34.002Z</time></trkpt><trkpt lat="44.984315603314684" lon="-0.6041438698826072"><ele>7.571428571428571</ele><time>2026-03-31T12:03:39.002Z</time></trkpt><trkpt lat="44.984380281734325" lon="-0.6041746023042084"><ele>7.428571428571429</ele><time>2026-03-31T12:03:45.002Z</time></trkpt><trkpt lat="44.984450981189674" lon="-0.6041866988356205"><ele>7.285714285714286</ele><time>2026-03-31T12:03:51.002Z</time></trkpt><trkpt lat="44.984519162008276" lon="-0.60422188626421"><ele>7.142857142857142</ele><time>2026-03-31T12:03:58.002Z</time></trkpt><trkpt lat="44.98458838912423" lon="-0.6042623209205953"><ele>7.0</ele><time>2026-03-31T12:04:05.002Z</time></trkpt><trkpt lat="44.98465116669036" lon="-0.6042857067302241"><ele>7.0</ele><time>2026-03-31T12:04:11.002Z</time></trkpt><trkpt lat="44.984711270432264" lon="-0.6043183999397588"><ele>7.0</ele><time>2026-03-31T12:04:16.002Z</time></trkpt><trkpt lat="44.98477037737307" lon="-0.6043528806675149"><ele>7.0</ele><time>2026-03-31T12:04:21.002Z</time></trkpt><trkpt lat="44.9848365125662" lon="-0.6043791220464078"><ele>7.0</ele><time>2026-03-31T12:04:26.001Z</time></trkpt><trkpt lat="44.98490627470476" lon="-0.6044085801112014"><ele>7.0</ele><time>2026-03-31T12:04:31.002Z</time></trkpt><trkpt lat="44.98497651199888" lon="-0.6044409368385794"><ele>7.0</ele><time>2026-03-31T12:04:36.002Z</time></trkpt><trkpt lat="44.985041266483805" lon="-0.6044729363168841"><ele>7.0</ele><time>2026-03-31T12:04:41.001Z</time></trkpt><trkpt lat="44.98509890071038" lon="-0.6045158122269949"><ele>6.714285714285714</ele><time>2026-03-31T12:04:46.001Z</time></trkpt><trkpt lat="44.98516097065277" lon="-0.6045655668404674"><ele>6.428571428571429</ele><time>2026-03-31T12:04:52.001Z</time></trkpt><trkpt lat="44.98522346321843" lon="-0.6045914045596926"><ele>6.142857142857142</ele><time>2026-03-31T12:04:57.001Z</time></trkpt><trkpt lat="44.985285414759765" lon="-0.6046256537510433"><ele>5.857142857142858</ele><time>2026-03-31T12:05:02.001Z</time></trkpt><trkpt lat="44.98534997411915" lon="-0.6046649328897533"><ele>5.571428571428571</ele><time>2026-03-31T12:05:08.001Z</time></trkpt><trkpt lat="44.98541626001281" lon="-0.6046990805749979"><ele>5.285714285714286</ele><time>2026-03-31T12:05:14.001Z</time></trkpt><trkpt lat="44.98548302496642" lon="-0.6047467990924005"><ele>5.0</ele><time>2026-03-31T12:05:21.001Z</time></trkpt><trkpt lat="44.985543618142856" lon="-0.6047785331111919"><ele>5.0</ele><time>2026-03-31T12:05:28.001Z</time></trkpt><trkpt lat="44.98561509931114" lon="-0.6048177950170338"><ele>5.0</ele><time>2026-03-31T12:05:34.001Z</time></trkpt><trkpt lat="44.9856799752664" lon="-0.6048495826851613"><ele>5.0</ele><time>2026-03-31T12:05:40.001Z</time></trkpt><trkpt lat="44.98574090386911" lon="-0.6048884601885453"><ele>5.0</ele><time>2026-03-31T12:05:47.001Z</time></trkpt><trkpt lat="44.98580629662959" lon="-0.6049215134540002"><ele>5.0</ele><time>2026-03-31T12:05:52.001Z</time></trkpt><trkpt lat="44.98587681236834" lon="-0.6049611786576863"><ele>5.0</ele><time>2026-03-31T12:05:57.001Z</time></trkpt><trkpt lat="44.98594102708828" lon="-0.6049962573033101"><ele>5.0</ele><time>2026-03-31T12:06:02.001Z</time></trkpt><trkpt lat="44.98600049955517" lon="-0.605031700776296"><ele>5.0</ele><time>2026-03-31T12:06:07.001Z</time></trkpt><trkpt lat="44.986061009175366" lon="-0.6050639858239606"><ele>5.0</ele><time>2026-03-31T12:06:12.001Z</time></trkpt><trkpt lat="44.986124845266446" lon="-0.6050987002773198"><ele>5.0</ele><time>2026-03-31T12:06:18.001Z</time></trkpt><trkpt lat="44.9861940577828" lon="-0.6051397349032445"><ele>5.0</ele><time>2026-03-31T12:06:24.001Z</time></trkpt><trkpt lat="44.98626081102036" lon="-0.6051869845554048"><ele>5.0</ele><time>2026-03-31T12:06:30Z</time></trkpt><trkpt lat="44.98632212590658" lon="-0.6052135407468652"><ele>5.0</ele><time>2026-03-31T12:06:36Z</time></trkpt><trkpt lat="44.98639260828985" lon="-0.6052573071042838"><ele>5.0</ele><time>2026-03-31T12:06:42Z</time></trkpt><trkpt lat="44.986461599155774" lon="-0.6052949877879441"><ele>5.0</ele><time>2026-03-31T12:06:47Z</time></trkpt><trkpt lat="44.986524915673" lon="-0.6053244462732827"><ele>5.0</ele><time>2026-03-31T12:06:51Z</time></trkpt><trkpt lat="44.986588610196655" lon="-0.6053642099466643"><ele>5.0</ele><time>2026-03-31T12:06:56Z</time></trkpt><trkpt lat="44.986656653362544" lon="-0.6054045687096371"><ele>5.0</ele><time>2026-03-31T12:07:01Z</time></trkpt><trkpt lat="44.98671522315733" lon="-0.6054402293594309"><ele>5.0</ele><time>2026-03-31T12:07:06Z</time></trkpt><trkpt lat="44.98677234219328" lon="-0.6054915435206012"><ele>5.0</ele><time>2026-03-31T12:07:12Z</time></trkpt><trkpt lat="44.986832606443265" lon="-0.6055390888846642"><ele>5.0</ele><time>2026-03-31T12:07:18Z</time></trkpt><trkpt lat="44.98689707609856" lon="-0.6055929416957965"><ele>5.285714285714286</ele><time>2026-03-31T12:07:24Z</time></trkpt><trkpt lat="44.986955350769826" lon="-0.6056493625644429"><ele>5.571428571428571</ele><time>2026-03-31T12:07:30Z</time></trkpt><trkpt lat="44.98701162324757" lon="-0.6057011752913785"><ele>5.857142857142858</ele><time>2026-03-31T12:07:36Z</time></trkpt><trkpt lat="44.98706369263499" lon="-0.6057546746221022"><ele>6.142857142857142</ele><time>2026-03-31T12:07:41Z</time></trkpt><trkpt lat="44.98711479320807" lon="-0.6058123196919317"><ele>6.428571428571429</ele><time>2026-03-31T12:07:47Z</time></trkpt><trkpt lat="44.98717044601287" lon="-0.6058565761662522"><ele>6.714285714285714</ele><time>2026-03-31T12:07:52Z</time></trkpt><trkpt lat="44.98722676845153" lon="-0.6059157999651577"><ele>7.0</ele><time>2026-03-31T12:07:58Z</time></trkpt><trkpt lat="44.987291416501684" lon="-0.6059659462769734"><ele>7.0</ele><time>2026-03-31T12:08:04Z</time></trkpt><trkpt lat="44.98735394417946" lon="-0.6060242731530707"><ele>7.0</ele><time>2026-03-31T12:08:11Z</time></trkpt><trkpt lat="44.98741859315684" lon="-0.6060758761106704"><ele>7.0</ele><time>2026-03-31T12:08:17Z</time></trkpt><trkpt lat="44.98747752976722" lon="-0.6061244308058249"><ele>7.0</ele><time>2026-03-31T12:08:22Z</time></trkpt><trkpt lat="44.987533234385246" lon="-0.6061764591414145"><ele>7.0</ele><time>2026-03-31T12:08:27Z</time></trkpt><trkpt lat="44.98758656060208" lon="-0.6062260921083021"><ele>7.0</ele><time>2026-03-31T12:08:32Z</time></trkpt><trkpt lat="44.98764348559582" lon="-0.6062773033430876"><ele>7.0</ele><time>2026-03-31T12:08:36.998Z</time></trkpt><trkpt lat="44.98770623297261" lon="-0.6063282184779218"><ele>7.142857142857142</ele><time>2026-03-31T12:08:43.999Z</time></trkpt><trkpt lat="44.98775851545175" lon="-0.6063842013362247"><ele>7.285714285714286</ele><time>2026-03-31T12:08:50.998Z</time></trkpt><trkpt lat="44.98781610072639" lon="-0.6064459489249882"><ele>7.428571428571429</ele><time>2026-03-31T12:08:57.998Z</time></trkpt><trkpt lat="44.98787758950389" lon="-0.606500875926609"><ele>7.571428571428571</ele><time>2026-03-31T12:09:03.998Z</time></trkpt><trkpt lat="44.98793374710992" lon="-0.6065508072821857"><ele>7.7142857142857135</ele><time>2026-03-31T12:09:09.998Z</time></trkpt><trkpt lat="44.987989264146265" lon="-0.6066017597192542"><ele>7.857142857142857</ele><time>2026-03-31T12:09:15.998Z</time></trkpt><trkpt lat="44.98805202112827" lon="-0.6066482999810033"><ele>8.0</ele><time>2026-03-31T12:09:21.998Z</time></trkpt><trkpt lat="44.98810765946046" lon="-0.6066906426484243"><ele>8.0</ele><time>2026-03-31T12:09:26.998Z</time></trkpt><trkpt lat="44.98816038865327" lon="-0.6067443373739109"><ele>7.999999999999999</ele><time>2026-03-31T12:09:31.998Z</time></trkpt><trkpt lat="44.98821271777704" lon="-0.6067954191319108"><ele>8.0</ele><time>2026-03-31T12:09:37.998Z</time></trkpt><trkpt lat="44.98826918727764" lon="-0.606838121714739"><ele>8.0</ele><time>2026-03-31T12:09:42.998Z</time></trkpt><trkpt lat="44.988323560259886" lon="-0.6068989293559495"><ele>7.999999999999999</ele><time>2026-03-31T12:09:47.998Z</time></trkpt><trkpt lat="44.9883835582465" lon="-0.6069542693297691"><ele>8.0</ele><time>2026-03-31T12:09:53.998Z</time></trkpt><trkpt lat="44.988439383375166" lon="-0.6070218910995154"><ele>8.0</ele><time>2026-03-31T12:10:01.998Z</time></trkpt><trkpt lat="44.98849183086419" lon="-0.6070786001193552"><ele>7.857142857142857</ele><time>2026-03-31T12:10:07.998Z</time></trkpt><trkpt lat="44.98855315939939" lon="-0.6071413949725286"><ele>7.7142857142857135</ele><time>2026-03-31T12:10:13.998Z</time></trkpt><trkpt lat="44.98860037408146" lon="-0.6072048098095311"><ele>7.571428571428571</ele><time>2026-03-31T12:10:19.998Z</time></trkpt><trkpt lat="44.988653228191744" lon="-0.607256475691301"><ele>7.428571428571429</ele><time>2026-03-31T12:10:25.998Z</time></trkpt><trkpt lat="44.988704040183634" lon="-0.6073139778743541"><ele>7.285714285714286</ele><time>2026-03-31T12:10:30.998Z</time></trkpt><trkpt lat="44.98876000048161" lon="-0.6073681795196345"><ele>7.142857142857142</ele><time>2026-03-31T12:10:36.998Z</time></trkpt><trkpt lat="44.988805913869044" lon="-0.6074364301800018"><ele>7.0</ele><time>2026-03-31T12:10:41.997Z</time></trkpt><trkpt lat="44.988850710270654" lon="-0.6075003294156672"><ele>7.0</ele><time>2026-03-31T12:10:46.997Z</time></trkpt><trkpt lat="44.98889713188706" lon="-0.607576417657896"><ele>7.0</ele><time>2026-03-31T12:10:52.997Z</time></trkpt><trkpt lat="44.98894458165322" lon="-0.6076352856428809"><ele>7.0</ele><time>2026-03-31T12:10:57.997Z</time></trkpt><trkpt lat="44.98899818402289" lon="-0.6077033860830715"><ele>7.0</ele><time>2026-03-31T12:11:03.997Z</time></trkpt><trkpt lat="44.98904676375257" lon="-0.6077637038263444"><ele>7.0</ele><time>2026-03-31T12:11:08.997Z</time></trkpt><trkpt lat="44.989096779162786" lon="-0.6078455298044992"><ele>7.0</ele><time>2026-03-31T12:11:14.997Z</time></trkpt><trkpt lat="44.989154536335086" lon="-0.6079136301396583"><ele>7.0</ele><time>2026-03-31T12:11:20.997Z</time></trkpt><trkpt lat="44.98920368143142" lon="-0.6079710057362449"><ele>7.142857142857142</ele><time>2026-03-31T12:11:25.997Z</time></trkpt><trkpt lat="44.9892563877549" lon="-0.6080351244733199"><ele>7.285714285714286</ele><time>2026-03-31T12:11:31.997Z</time></trkpt><trkpt lat="44.98930825779889" lon="-0.6080924571227678"><ele>7.428571428571429</ele><time>2026-03-31T12:11:36.997Z</time></trkpt><trkpt lat="44.98936259375255" lon="-0.6081548309046969"><ele>7.571428571428571</ele><time>2026-03-31T12:11:41.997Z</time></trkpt><trkpt lat="44.989409606017205" lon="-0.6082281071974973"><ele>7.7142857142857135</ele><time>2026-03-31T12:11:47.997Z</time></trkpt><trkpt lat="44.989452517654186" lon="-0.608296603489997"><ele>7.857142857142857</ele><time>2026-03-31T12:11:52.997Z</time></trkpt><trkpt lat="44.9894906380485" lon="-0.608379774954863"><ele>8.0</ele><time>2026-03-31T12:11:58.997Z</time></trkpt><trkpt lat="44.989542724711086" lon="-0.6084433259893997"><ele>8.0</ele><time>2026-03-31T12:12:04.997Z</time></trkpt><trkpt lat="44.98959150587214" lon="-0.6085268179743687"><ele>7.999999999999999</ele><time>2026-03-31T12:12:10.997Z</time></trkpt><trkpt lat="44.98963736739462" lon="-0.6085900146350107"><ele>8.0</ele><time>2026-03-31T12:12:15.997Z</time></trkpt><trkpt lat="44.98968303052919" lon="-0.608652856192793"><ele>8.0</ele><time>2026-03-31T12:12:20.997Z</time></trkpt><trkpt lat="44.98973365198018" lon="-0.608719576282743"><ele>7.999999999999999</ele><time>2026-03-31T12:12:26.997Z</time></trkpt><trkpt lat="44.98977515655" lon="-0.6087865394096652"><ele>8.0</ele><time>2026-03-31T12:12:32.997Z</time></trkpt><trkpt lat="44.98981974140912" lon="-0.6088651165257183"><ele>8.0</ele><time>2026-03-31T12:12:37.997Z</time></trkpt><trkpt lat="44.989856831481646" lon="-0.6089464300249571"><ele>8.0</ele><time>2026-03-31T12:12:43.997Z</time></trkpt><trkpt lat="44.989899928266354" lon="-0.6090223390529335"><ele>7.999999999999999</ele><time>2026-03-31T12:12:48.996Z</time></trkpt><trkpt lat="44.989946859838064" lon="-0.6090958342278202"><ele>8.0</ele><time>2026-03-31T12:12:53.996Z</time></trkpt><trkpt lat="44.990000244061164" lon="-0.6091746432543317"><ele>8.0</ele><time>2026-03-31T12:12:59.996Z</time></trkpt><trkpt lat="44.99004071511772" lon="-0.6092494441281547"><ele>7.999999999999999</ele><time>2026-03-31T12:13:04.996Z</time></trkpt><trkpt lat="44.99007977668436" lon="-0.6093212858062041"><ele>8.0</ele><time>2026-03-31T12:13:09.996Z</time></trkpt><trkpt lat="44.99012110939629" lon="-0.6093969175616452"><ele>8.0</ele><time>2026-03-31T12:13:14.996Z</time></trkpt><trkpt lat="44.99013544699095" lon="-0.6095010007863264"><ele>7.857142857142857</ele><time>2026-03-31T12:13:21.996Z</time></trkpt><trkpt lat="44.99013889896552" lon="-0.6096050093100552"><ele>7.7142857142857135</ele><time>2026-03-31T12:13:27.996Z</time></trkpt><trkpt lat="44.99013132437375" lon="-0.609706401685166"><ele>7.571428571428571</ele><time>2026-03-31T12:13:33.996Z</time></trkpt><trkpt lat="44.990128461023204" lon="-0.6098073189320895"><ele>7.428571428571429</ele><time>2026-03-31T12:13:39.996Z</time></trkpt><trkpt lat="44.99010201925944" lon="-0.6098948148489725"><ele>7.285714285714286</ele><time>2026-03-31T12:13:45.996Z</time></trkpt><trkpt lat="44.99009069520767" lon="-0.6099882390357119"><ele>7.142857142857142</ele><time>2026-03-31T12:13:51.996Z</time></trkpt><trkpt lat="44.990071697375555" lon="-0.6100754308594245"><ele>7.0</ele><time>2026-03-31T12:13:57.996Z</time></trkpt><trkpt lat="44.99006484208844" lon="-0.6101788367864924"><ele>7.0</ele><time>2026-03-31T12:14:02.996Z</time></trkpt><trkpt lat="44.9900520052891" lon="-0.6102742659799777"><ele>7.0</ele><time>2026-03-31T12:14:08.996Z</time></trkpt><trkpt lat="44.99002995983089" lon="-0.610374147441546"><ele>7.0</ele><time>2026-03-31T12:14:14.996Z</time></trkpt><trkpt lat="44.99000448070907" lon="-0.6104588803067146"><ele>7.0</ele><time>2026-03-31T12:14:19.996Z</time></trkpt><trkpt lat="44.989970501486994" lon="-0.6105384506949665"><ele>7.0</ele><time>2026-03-31T12:14:25.996Z</time></trkpt><trkpt lat="44.989940223641334" lon="-0.6106357000191671"><ele>7.0</ele><time>2026-03-31T12:14:30.996Z</time></trkpt><trkpt lat="44.98991991683429" lon="-0.6107336239583047"><ele>7.0</ele><time>2026-03-31T12:14:36.996Z</time></trkpt><trkpt lat="44.98990182250955" lon="-0.6108257926489974"><ele>7.285714285714286</ele><time>2026-03-31T12:14:41.996Z</time></trkpt><trkpt lat="44.98988851687328" lon="-0.6109238864531674"><ele>7.571428571428571</ele><time>2026-03-31T12:14:47.996Z</time></trkpt><trkpt lat="44.98986998458283" lon="-0.611014726385656"><ele>7.857142857142858</ele><time>2026-03-31T12:14:52.996Z</time></trkpt><trkpt lat="44.989847547163926" lon="-0.611116421775337"><ele>8.142857142857142</ele><time>2026-03-31T12:14:58.995Z</time></trkpt><trkpt lat="44.98982559597954" lon="-0.6112078800887115"><ele>8.428571428571429</ele><time>2026-03-31T12:15:04.995Z</time></trkpt><trkpt lat="44.98980615923673" lon="-0.6112961451220659"><ele>8.714285714285715</ele><time>2026-03-31T12:15:09.995Z</time></trkpt><trkpt lat="44.98979301752514" lon="-0.6113844778388281"><ele>9.0</ele><time>2026-03-31T12:15:14.995Z</time></trkpt><trkpt lat="44.989783764653076" lon="-0.6114796707537828"><ele>9.000000000000002</ele><time>2026-03-31T12:15:20.995Z</time></trkpt><trkpt lat="44.98976972579119" lon="-0.6115716727514636"><ele>9.0</ele><time>2026-03-31T12:15:25.995Z</time></trkpt><trkpt lat="44.989750632794994" lon="-0.6116710867872721"><ele>9.0</ele><time>2026-03-31T12:15:31.995Z</time></trkpt><trkpt lat="44.98973606844275" lon="-0.6117715783653832"><ele>9.0</ele><time>2026-03-31T12:15:37.995Z</time></trkpt><trkpt lat="44.98972275797461" lon="-0.6118667478985514"><ele>9.0</ele><time>2026-03-31T12:15:43.995Z</time></trkpt><trkpt lat="44.989699140897024" lon="-0.6119656876209231"><ele>9.000000000000002</ele><time>2026-03-31T12:15:49.995Z</time></trkpt><trkpt lat="44.989689297212855" lon="-0.6120595285467858"><ele>9.0</ele><time>2026-03-31T12:15:54.995Z</time></trkpt><trkpt lat="44.989669140335046" lon="-0.6121595063838482"><ele>9.142857142857144</ele><time>2026-03-31T12:16:01.995Z</time></trkpt><trkpt lat="44.98963208659413" lon="-0.6122488536101895"><ele>9.285714285714286</ele><time>2026-03-31T12:16:07.995Z</time></trkpt><trkpt lat="44.989607905543735" lon="-0.6123315132942206"><ele>9.428571428571429</ele><time>2026-03-31T12:16:12.995Z</time></trkpt><trkpt lat="44.98955687838936" lon="-0.6124044744809884"><ele>9.571428571428573</ele><time>2026-03-31T12:16:18.995Z</time></trkpt><trkpt lat="44.98950074982585" lon="-0.6124691691220587"><ele>9.714285714285715</ele><time>2026-03-31T12:16:24.995Z</time></trkpt><trkpt lat="44.989439347644925" lon="-0.612525842813285"><ele>9.857142857142858</ele><time>2026-03-31T12:16:30.995Z</time></trkpt><trkpt lat="44.98937843658136" lon="-0.612557674353816"><ele>10.0</ele><time>2026-03-31T12:16:36.995Z</time></trkpt><trkpt lat="44.9893201046956" lon="-0.6125952422993308"><ele>10.0</ele><time>2026-03-31T12:16:41.995Z</time></trkpt><trkpt lat="44.98925120986028" lon="-0.6126252848699233"><ele>10.0</ele><time>2026-03-31T12:16:47.995Z</time></trkpt><trkpt lat="44.98918590227427" lon="-0.6126629582332327"><ele>10.0</ele><time>2026-03-31T12:16:53.995Z</time></trkpt><trkpt lat="44.989121778201145" lon="-0.6127176078640467"><ele>10.0</ele><time>2026-03-31T12:16:59.995Z</time></trkpt><trkpt lat="44.98905790064344" lon="-0.6127570838410563"><ele>10.0</ele><time>2026-03-31T12:17:05.995Z</time></trkpt><trkpt lat="44.98900742172158" lon="-0.6128115846712714"><ele>10.0</ele><time>2026-03-31T12:17:10.994Z</time></trkpt><trkpt lat="44.9889549850053" lon="-0.612868332369459"><ele>10.0</ele><time>2026-03-31T12:17:16.995Z</time></trkpt><trkpt lat="44.988921851305456" lon="-0.6129529673335761"><ele>10.0</ele><time>2026-03-31T12:17:21.995Z</time></trkpt><trkpt lat="44.98890247805389" lon="-0.6130493857353765"><ele>10.0</ele><time>2026-03-31T12:17:27.995Z</time></trkpt><trkpt lat="44.988888152005714" lon="-0.6131384267940908"><ele>10.0</ele><time>2026-03-31T12:17:32.995Z</time></trkpt><trkpt lat="44.98886994296364" lon="-0.6132302131887122"><ele>10.0</ele><time>2026-03-31T12:17:37.995Z</time></trkpt><trkpt lat="44.9888631905675" lon="-0.6133188214865637"><ele>10.0</ele><time>2026-03-31T12:17:42.995Z</time></trkpt><trkpt lat="44.98884622583409" lon="-0.6134254726924624"><ele>10.0</ele><time>2026-03-31T12:17:48.995Z</time></trkpt><trkpt lat="44.988835322492015" lon="-0.6135164755827939"><ele>10.0</ele><time>2026-03-31T12:17:53.995Z</time></trkpt><trkpt lat="44.98881586908123" lon="-0.613608858014117"><ele>9.714285714285714</ele><time>2026-03-31T12:17:59.995Z</time></trkpt><trkpt lat="44.988795128591065" lon="-0.613705821024859"><ele>9.428571428571429</ele><time>2026-03-31T12:18:05.995Z</time></trkpt><trkpt lat="44.988775474189296" lon="-0.6138092688748847"><ele>9.142857142857142</ele><time>2026-03-31T12:18:11.995Z</time></trkpt><trkpt lat="44.98875775954721" lon="-0.6139102795195915"><ele>8.857142857142858</ele><time>2026-03-31T12:18:17.995Z</time></trkpt><trkpt lat="44.988735270971375" lon="-0.6140118135245609"><ele>8.571428571428571</ele><time>2026-03-31T12:18:23.995Z</time></trkpt><trkpt lat="44.98871826672089" lon="-0.614109977561322"><ele>8.285714285714285</ele><time>2026-03-31T12:18:29.995Z</time></trkpt><trkpt lat="44.988697579303036" lon="-0.6142138895516495"><ele>8.0</ele><time>2026-03-31T12:18:35.995Z</time></trkpt><trkpt lat="44.98866514299325" lon="-0.6143032614753167"><ele>8.0</ele><time>2026-03-31T12:18:41.995Z</time></trkpt><trkpt lat="44.98863754288175" lon="-0.6143956886033302"><ele>7.999999999999999</ele><time>2026-03-31T12:18:47.995Z</time></trkpt><trkpt lat="44.988611318764" lon="-0.614478264924752"><ele>8.0</ele><time>2026-03-31T12:18:52.995Z</time></trkpt><trkpt lat="44.988582448286415" lon="-0.6145597203034774"><ele>8.0</ele><time>2026-03-31T12:18:57.995Z</time></trkpt><trkpt lat="44.98855738535205" lon="-0.6146428937586735"><ele>7.999999999999999</ele><time>2026-03-31T12:19:02.995Z</time></trkpt><trkpt lat="44.9885336731614" lon="-0.6147356668956127"><ele>8.0</ele><time>2026-03-31T12:19:07.994Z</time></trkpt><trkpt lat="44.98850931493003" lon="-0.6148203436922239"><ele>8.0</ele><time>2026-03-31T12:19:12.994Z</time></trkpt><trkpt lat="44.988490999776175" lon="-0.6149064830092711"><ele>8.0</ele><time>2026-03-31T12:19:17.994Z</time></trkpt><trkpt lat="44.9884769279413" lon="-0.6150091012546652"><ele>7.999999999999999</ele><time>2026-03-31T12:19:23.994Z</time></trkpt><trkpt lat="44.988462096027796" lon="-0.615098996412438"><ele>8.0</ele><time>2026-03-31T12:19:28.994Z</time></trkpt><trkpt lat="44.98845943701787" lon="-0.6151972697287856"><ele>8.0</ele><time>2026-03-31T12:19:34.994Z</time></trkpt><trkpt lat="44.988454627217024" lon="-0.6153022162579915"><ele>7.999999999999999</ele><time>2026-03-31T12:19:40.994Z</time></trkpt><trkpt lat="44.988458628013994" lon="-0.6154153490242632"><ele>8.0</ele><time>2026-03-31T12:19:46.994Z</time></trkpt><trkpt lat="44.988455003544416" lon="-0.6155097854118381"><ele>8.0</ele><time>2026-03-31T12:19:52.994Z</time></trkpt><trkpt lat="44.98845084807189" lon="-0.6155988505714618"><ele>8.0</ele><time>2026-03-31T12:19:57.994Z</time></trkpt><trkpt lat="44.98845198442176" lon="-0.6156997689363485"><ele>7.999999999999999</ele><time>2026-03-31T12:20:03.994Z</time></trkpt><trkpt lat="44.98845261725087" lon="-0.6157946520215205"><ele>8.0</ele><time>2026-03-31T12:20:08.994Z</time></trkpt><trkpt lat="44.988447630752646" lon="-0.6158990555446785"><ele>8.0</ele><time>2026-03-31T12:20:14.994Z</time></trkpt><trkpt lat="44.98844857033505" lon="-0.616004352052284"><ele>7.999999999999999</ele><time>2026-03-31T12:20:20.994Z</time></trkpt><trkpt lat="44.988446650775835" lon="-0.6161005850291468"><ele>8.0</ele><time>2026-03-31T12:20:25.994Z</time></trkpt><trkpt lat="44.988456171640685" lon="-0.6161922491355168"><ele>8.0</ele><time>2026-03-31T12:20:30.994Z</time></trkpt><trkpt lat="44.98845687730746" lon="-0.6162861197533083"><ele>8.285714285714285</ele><time>2026-03-31T12:20:35.994Z</time></trkpt><trkpt lat="44.98844865982476" lon="-0.6163861701285619"><ele>8.571428571428571</ele><time>2026-03-31T12:20:41.995Z</time></trkpt><trkpt lat="44.98843808158114" lon="-0.6164758469789487"><ele>8.857142857142858</ele><time>2026-03-31T12:20:46.995Z</time></trkpt><trkpt lat="44.98843327159664" lon="-0.6165687100584079"><ele>9.142857142857142</ele><time>2026-03-31T12:20:52.995Z</time></trkpt><trkpt lat="44.98842985307171" lon="-0.616672658726745"><ele>9.428571428571429</ele><time>2026-03-31T12:20:57.995Z</time></trkpt><trkpt lat="44.98841301606917" lon="-0.6167631615256667"><ele>9.714285714285714</ele><time>2026-03-31T12:21:02.995Z</time></trkpt><trkpt lat="44.988393048373055" lon="-0.6168560077376614"><ele>10.0</ele><time>2026-03-31T12:21:07.995Z</time></trkpt><trkpt lat="44.98837719947775" lon="-0.6169428246336135"><ele>10.0</ele><time>2026-03-31T12:21:13.993Z</time></trkpt><trkpt lat="44.988377711275525" lon="-0.6170407034865476"><ele>10.0</ele><time>2026-03-31T12:21:18.994Z</time></trkpt><trkpt lat="44.988379430741084" lon="-0.6171464948397215"><ele>10.0</ele><time>2026-03-31T12:21:23.993Z</time></trkpt><trkpt lat="44.98837211747496" lon="-0.617253267063969"><ele>10.0</ele><time>2026-03-31T12:21:29.994Z</time></trkpt><trkpt lat="44.98834652965829" lon="-0.6173560037631913"><ele>10.0</ele><time>2026-03-31T12:21:35.994Z</time></trkpt><trkpt lat="44.988319439407526" lon="-0.617437778452682"><ele>10.0</ele><time>2026-03-31T12:21:40.994Z</time></trkpt><trkpt lat="44.988299515569814" lon="-0.6175335921354412"><ele>10.0</ele><time>2026-03-31T12:21:46.994Z</time></trkpt><trkpt lat="44.98827614457344" lon="-0.6176224356236643"><ele>10.0</ele><time>2026-03-31T12:21:51.994Z</time></trkpt><trkpt lat="44.98825616712355" lon="-0.6177173224414295"><ele>10.0</ele><time>2026-03-31T12:21:57.994Z</time></trkpt><trkpt lat="44.98825354823043" lon="-0.6178098202883365"><ele>10.0</ele><time>2026-03-31T12:22:02.994Z</time></trkpt><trkpt lat="44.98825652534612" lon="-0.6179178905241699"><ele>10.0</ele><time>2026-03-31T12:22:08.994Z</time></trkpt><trkpt lat="44.98824905518053" lon="-0.6180172201455764"><ele>10.0</ele><time>2026-03-31T12:22:13.994Z</time></trkpt><trkpt lat="44.9882407569573" lon="-0.6181269032775172"><ele>10.0</ele><time>2026-03-31T12:22:19.994Z</time></trkpt><trkpt lat="44.988236673805474" lon="-0.6182234578777638"><ele>10.0</ele><time>2026-03-31T12:22:25.994Z</time></trkpt><trkpt lat="44.98823000673889" lon="-0.6183255512520981"><ele>10.0</ele><time>2026-03-31T12:22:31.994Z</time></trkpt><trkpt lat="44.988238953961854" lon="-0.6184146203502802"><ele>10.0</ele><time>2026-03-31T12:22:36.994Z</time></trkpt><trkpt lat="44.98824000681681" lon="-0.6185218219914448"><ele>10.0</ele><time>2026-03-31T12:22:42.994Z</time></trkpt><trkpt lat="44.988243165224375" lon="-0.6186188902323774"><ele>10.0</ele><time>2026-03-31T12:22:47.994Z</time></trkpt><trkpt lat="44.98825055881979" lon="-0.6187116945432849"><ele>10.0</ele><time>2026-03-31T12:22:52.994Z</time></trkpt><trkpt lat="44.988262044348396" lon="-0.6188076549212894"><ele>10.0</ele><time>2026-03-31T12:22:57.994Z</time></trkpt><trkpt lat="44.988243998273745" lon="-0.6189016833392345"><ele>10.0</ele><time>2026-03-31T12:23:03.994Z</time></trkpt><trkpt lat="44.98822608992438" lon="-0.618997002380032"><ele>10.0</ele><time>2026-03-31T12:23:08.994Z</time></trkpt><trkpt lat="44.98821434261666" lon="-0.6190938467007924"><ele>10.0</ele><time>2026-03-31T12:23:14.994Z</time></trkpt><trkpt lat="44.988209275542616" lon="-0.6191928839245905"><ele>10.0</ele><time>2026-03-31T12:23:20.994Z</time></trkpt><trkpt lat="44.98821765073013" lon="-0.6192829838393474"><ele>10.0</ele><time>2026-03-31T12:23:25.994Z</time></trkpt><trkpt lat="44.98822286042413" lon="-0.6193847031249972"><ele>10.0</ele><time>2026-03-31T12:23:31.993Z</time></trkpt><trkpt lat="44.98822320327793" lon="-0.6194890227724568"><ele>10.0</ele><time>2026-03-31T12:23:37.993Z</time></trkpt><trkpt lat="44.988225007140706" lon="-0.6195839147544624"><ele>10.0</ele><time>2026-03-31T12:23:42.993Z</time></trkpt><trkpt lat="44.98823680483849" lon="-0.6196736020483484"><ele>9.857142857142858</ele><time>2026-03-31T12:23:47.993Z</time></trkpt><trkpt lat="44.988245837104934" lon="-0.6197777506829414"><ele>9.714285714285715</ele><time>2026-03-31T12:23:53.993Z</time></trkpt><trkpt lat="44.98825381059145" lon="-0.6198783902434183"><ele>9.571428571428573</ele><time>2026-03-31T12:23:59.993Z</time></trkpt><trkpt lat="44.98826576189334" lon="-0.6199669790312179"><ele>9.428571428571429</ele><time>2026-03-31T12:24:04.993Z</time></trkpt><trkpt lat="44.98827867264102" lon="-0.6200556820708268"><ele>9.285714285714286</ele><time>2026-03-31T12:24:10.993Z</time></trkpt><trkpt lat="44.98828935063745" lon="-0.6201480619172933"><ele>9.142857142857144</ele><time>2026-03-31T12:24:15.993Z</time></trkpt><trkpt lat="44.98830260999827" lon="-0.6202367464546525"><ele>9.0</ele><time>2026-03-31T12:24:20.993Z</time></trkpt><trkpt lat="44.988320356671565" lon="-0.6203298589601767"><ele>9.0</ele><time>2026-03-31T12:24:25.993Z</time></trkpt><trkpt lat="44.98834067956125" lon="-0.6204284983803051"><ele>9.0</ele><time>2026-03-31T12:24:31.993Z</time></trkpt><trkpt lat="44.98839558184478" lon="-0.6205073435052311"><ele>9.0</ele><time>2026-03-31T12:24:37.993Z</time></trkpt><trkpt lat="44.98843763656428" lon="-0.6205998671810364"><ele>9.0</ele><time>2026-03-31T12:24:42.993Z</time></trkpt><trkpt lat="44.98846610426445" lon="-0.6207030431910575"><ele>9.0</ele><time>2026-03-31T12:24:46.993Z</time></trkpt><trkpt lat="44.98847135560667" lon="-0.6207977716456413"><ele>9.0</ele><time>2026-03-31T12:24:50.993Z</time></trkpt><trkpt lat="44.988541703430265" lon="-0.6208754450329792"><ele>10.0</ele><time>2026-03-31T12:24:55.993Z</time></trkpt><trkpt lat="44.988595875849384" lon="-0.6209414217213233"><ele>11.0</ele><time>2026-03-31T12:24:59.993Z</time></trkpt><trkpt lat="44.98863631536622" lon="-0.6210111769246026"><ele>12.0</ele><time>2026-03-31T12:25:03.993Z</time></trkpt><trkpt lat="44.98868406666203" lon="-0.6210914477611607"><ele>13.0</ele><time>2026-03-31T12:25:08.993Z</time></trkpt><trkpt lat="44.988726696115634" lon="-0.6211636646025197"><ele>13.999999999999998</ele><time>2026-03-31T12:25:16.993Z</time></trkpt><trkpt lat="44.988753012022734" lon="-0.6212467340864473"><ele>15.0</ele><time>2026-03-31T12:25:23.993Z</time></trkpt><trkpt lat="44.98877011199929" lon="-0.621334399482695"><ele>16.0</ele><time>2026-03-31T12:25:29.993Z</time></trkpt><trkpt lat="44.98880126778457" lon="-0.6214341103483941"><ele>16.0</ele><time>2026-03-31T12:25:37.992Z</time></trkpt><trkpt lat="44.98881494014258" lon="-0.6215311426073165"><ele>15.999999999999998</ele><time>2026-03-31T12:25:42.993Z</time></trkpt><trkpt lat="44.988834818688" lon="-0.621635131409347"><ele>16.0</ele><time>2026-03-31T12:25:47.993Z</time></trkpt><trkpt lat="44.9888535915075" lon="-0.6217366643626534"><ele>16.0</ele><time>2026-03-31T12:25:52.993Z</time></trkpt><trkpt lat="44.98886216611101" lon="-0.6218357588298367"><ele>15.999999999999998</ele><time>2026-03-31T12:25:58.993Z</time></trkpt><trkpt lat="44.988869029388475" lon="-0.6219364702145928"><ele>16.0</ele><time>2026-03-31T12:26:04.993Z</time></trkpt><trkpt lat="44.988882870445806" lon="-0.6220276545089269"><ele>16.0</ele><time>2026-03-31T12:26:10.993Z</time></trkpt><trkpt lat="44.988896392554565" lon="-0.6221201542848012"><ele>16.142857142857142</ele><time>2026-03-31T12:26:15.993Z</time></trkpt><trkpt lat="44.98891155317843" lon="-0.6222183336774605"><ele>16.285714285714285</ele><time>2026-03-31T12:26:21.993Z</time></trkpt><trkpt lat="44.98891829966362" lon="-0.6223120220652716"><ele>16.428571428571427</ele><time>2026-03-31T12:26:26.993Z</time></trkpt><trkpt lat="44.98891484193755" lon="-0.6224058355178447"><ele>16.57142857142857</ele><time>2026-03-31T12:26:31.993Z</time></trkpt><trkpt lat="44.988921503951936" lon="-0.6224947974957175"><ele>16.714285714285715</ele><time>2026-03-31T12:26:36.993Z</time></trkpt><trkpt lat="44.98892051730689" lon="-0.6225998896117246"><ele>16.857142857142854</ele><time>2026-03-31T12:26:42.993Z</time></trkpt><trkpt lat="44.98892449632324" lon="-0.6226911142210386"><ele>17.0</ele><time>2026-03-31T12:26:48.993Z</time></trkpt><trkpt lat="44.98892268452454" lon="-0.6227804713605649"><ele>16.999999999999996</ele><time>2026-03-31T12:26:52.993Z</time></trkpt><trkpt lat="44.98893237751574" lon="-0.6228770283502323"><ele>17.0</ele><time>2026-03-31T12:26:58.993Z</time></trkpt><trkpt lat="44.988944061429066" lon="-0.6229652084994651"><ele>17.0</ele><time>2026-03-31T12:27:03.993Z</time></trkpt><trkpt lat="44.98893565018291" lon="-0.6230655637845843"><ele>17.0</ele><time>2026-03-31T12:27:09.993Z</time></trkpt><trkpt lat="44.98894749500479" lon="-0.6231553720391679"><ele>17.0</ele><time>2026-03-31T12:27:15.993Z</time></trkpt><trkpt lat="44.988952752360184" lon="-0.623255237562819"><ele>16.999999999999996</ele><time>2026-03-31T12:27:21.993Z</time></trkpt><trkpt lat="44.98895050252527" lon="-0.6233645321629938"><ele>17.0</ele><time>2026-03-31T12:27:26.993Z</time></trkpt><trkpt lat="44.98896106819808" lon="-0.6234678448761005"><ele>16.999999999999996</ele><time>2026-03-31T12:27:33.992Z</time></trkpt><trkpt lat="44.98895659885876" lon="-0.6235619040794997"><ele>17.0</ele><time>2026-03-31T12:27:39.992Z</time></trkpt><trkpt lat="44.98895811922828" lon="-0.6236614848090118"><ele>17.0</ele><time>2026-03-31T12:27:45.992Z</time></trkpt><trkpt lat="44.98895794916619" lon="-0.6237563855424835"><ele>17.0</ele><time>2026-03-31T12:27:50.992Z</time></trkpt><trkpt lat="44.9889531586376" lon="-0.623847642769426"><ele>17.0</ele><time>2026-03-31T12:27:55.992Z</time></trkpt><trkpt lat="44.98895765753792" lon="-0.6239416262442488"><ele>16.999999999999996</ele><time>2026-03-31T12:28:00.992Z</time></trkpt><trkpt lat="44.98895663027479" lon="-0.6240323827280274"><ele>17.0</ele><time>2026-03-31T12:28:04.992Z</time></trkpt><trkpt lat="44.98895461488294" lon="-0.624121931365924"><ele>17.142857142857142</ele><time>2026-03-31T12:28:10.992Z</time></trkpt><trkpt lat="44.98895683439936" lon="-0.6242261093423253"><ele>17.285714285714285</ele><time>2026-03-31T12:28:15.992Z</time></trkpt><trkpt lat="44.9889603411581" lon="-0.6243308472361532"><ele>17.42857142857143</ele><time>2026-03-31T12:28:21.992Z</time></trkpt><trkpt lat="44.98896419380677" lon="-0.6244232197393199"><ele>17.57142857142857</ele><time>2026-03-31T12:28:26.992Z</time></trkpt><trkpt lat="44.9889621949708" lon="-0.6245248450861585"><ele>17.714285714285715</ele><time>2026-03-31T12:28:32.992Z</time></trkpt><trkpt lat="44.9889700400186" lon="-0.6246300144055849"><ele>17.857142857142858</ele><time>2026-03-31T12:28:38.992Z</time></trkpt><trkpt lat="44.98897531622077" lon="-0.6247285638576945"><ele>18.0</ele><time>2026-03-31T12:28:43.992Z</time></trkpt><trkpt lat="44.98897160585485" lon="-0.6248336886093528"><ele>17.714285714285715</ele><time>2026-03-31T12:28:49.992Z</time></trkpt><trkpt lat="44.98898305107403" lon="-0.624940894824311"><ele>17.42857142857143</ele><time>2026-03-31T12:28:55.992Z</time></trkpt><trkpt lat="44.989000479009384" lon="-0.6250470671047851"><ele>17.142857142857142</ele><time>2026-03-31T12:29:01.992Z</time></trkpt><trkpt lat="44.98901032779765" lon="-0.6251444911060372"><ele>16.857142857142858</ele><time>2026-03-31T12:29:06.992Z</time></trkpt><trkpt lat="44.989015122274225" lon="-0.625243949095412"><ele>16.57142857142857</ele><time>2026-03-31T12:29:12.992Z</time></trkpt><trkpt lat="44.98902755772451" lon="-0.6253316400355776"><ele>16.285714285714285</ele><time>2026-03-31T12:29:17.992Z</time></trkpt><trkpt lat="44.98904948917291" lon="-0.6254155370801827"><ele>16.0</ele><time>2026-03-31T12:29:23.992Z</time></trkpt><trkpt lat="44.989091021318025" lon="-0.6255030287175033"><ele>15.571428571428571</ele><time>2026-03-31T12:29:28.992Z</time></trkpt><trkpt lat="44.98914441463471" lon="-0.6255599893020022"><ele>15.142857142857142</ele><time>2026-03-31T12:29:33.992Z</time></trkpt><trkpt lat="44.989207451775634" lon="-0.6256154344646611"><ele>14.714285714285714</ele><time>2026-03-31T12:29:39.992Z</time></trkpt><trkpt lat="44.989250930779896" lon="-0.6256885198686787"><ele>14.285714285714285</ele><time>2026-03-31T12:29:45.992Z</time></trkpt><trkpt lat="44.98929963309389" lon="-0.6257511248408597"><ele>13.857142857142858</ele><time>2026-03-31T12:29:51.992Z</time></trkpt><trkpt lat="44.989350592124275" lon="-0.6258281004669297"><ele>13.428571428571427</ele><time>2026-03-31T12:29:57.992Z</time></trkpt><trkpt lat="44.989397732229" lon="-0.6258871964458337"><ele>13.0</ele><time>2026-03-31T12:30:02.992Z</time></trkpt><trkpt lat="44.98944582455982" lon="-0.6259486908722537"><ele>12.714285714285714</ele><time>2026-03-31T12:30:07.992Z</time></trkpt><trkpt lat="44.989493918412194" lon="-0.6260279824687687"><ele>12.428571428571429</ele><time>2026-03-31T12:30:13.992Z</time></trkpt><trkpt lat="44.989537216568515" lon="-0.6260932076805824"><ele>12.142857142857142</ele><time>2026-03-31T12:30:18.992Z</time></trkpt><trkpt lat="44.98958762120609" lon="-0.626166034337785"><ele>11.857142857142858</ele><time>2026-03-31T12:30:24.992Z</time></trkpt><trkpt lat="44.98964044728762" lon="-0.6262221784486154"><ele>11.571428571428571</ele><time>2026-03-31T12:30:30.992Z</time></trkpt><trkpt lat="44.989687007856155" lon="-0.6262911381982693"><ele>11.285714285714286</ele><time>2026-03-31T12:30:36.992Z</time></trkpt><trkpt lat="44.989729000605074" lon="-0.6263661942868959"><ele>11.0</ele><time>2026-03-31T12:30:41.992Z</time></trkpt><trkpt lat="44.98977203915278" lon="-0.6264386828163176"><ele>11.0</ele><time>2026-03-31T12:30:47.992Z</time></trkpt><trkpt lat="44.98982198639425" lon="-0.6265056126031213"><ele>11.0</ele><time>2026-03-31T12:30:53.992Z</time></trkpt><trkpt lat="44.989880320268334" lon="-0.6265579535158204"><ele>11.0</ele><time>2026-03-31T12:31:01.992Z</time></trkpt><trkpt lat="44.98992255670205" lon="-0.6266552503625038"><ele>11.0</ele><time>2026-03-31T12:31:07.992Z</time></trkpt><trkpt lat="44.98996025773004" lon="-0.6267322826284364"><ele>11.0</ele><time>2026-03-31T12:31:12.992Z</time></trkpt><trkpt lat="44.99000052801136" lon="-0.6268041861184989"><ele>11.0</ele><time>2026-03-31T12:31:18.992Z</time></trkpt><trkpt lat="44.99005110784377" lon="-0.6268712058316628"><ele>11.0</ele><time>2026-03-31T12:31:23.992Z</time></trkpt><trkpt lat="44.99010124619069" lon="-0.6269400054503184"><ele>11.0</ele><time>2026-03-31T12:31:29.992Z</time></trkpt><trkpt lat="44.990154451073565" lon="-0.6270107497165415"><ele>11.0</ele><time>2026-03-31T12:31:35.992Z</time></trkpt><trkpt lat="44.99019892166047" lon="-0.6270838819685465"><ele>11.0</ele><time>2026-03-31T12:31:41.993Z</time></trkpt><trkpt lat="44.99024106923799" lon="-0.6271543386694045"><ele>11.0</ele><time>2026-03-31T12:31:47.992Z</time></trkpt><trkpt lat="44.99029345102276" lon="-0.6272121655767319"><ele>11.0</ele><time>2026-03-31T12:31:53.993Z</time></trkpt><trkpt lat="44.99034648332594" lon="-0.6272885834084082"><ele>11.0</ele><time>2026-03-31T12:31:59.992Z</time></trkpt><trkpt lat="44.990394438826975" lon="-0.6273470237086064"><ele>11.0</ele><time>2026-03-31T12:32:05.992Z</time></trkpt><trkpt lat="44.99045543757088" lon="-0.6273999415483265"><ele>11.0</ele><time>2026-03-31T12:32:11.992Z</time></trkpt><trkpt lat="44.990513753774216" lon="-0.6274416320054742"><ele>11.0</ele><time>2026-03-31T12:32:15.992Z</time></trkpt><trkpt lat="44.99057883722484" lon="-0.6274866683556297"><ele>11.0</ele><time>2026-03-31T12:32:22.992Z</time></trkpt><trkpt lat="44.9906416541181" lon="-0.6275025516165886"><ele>11.0</ele><time>2026-03-31T12:32:28.992Z</time></trkpt><trkpt lat="44.9907125533682" lon="-0.627529957515844"><ele>11.0</ele><time>2026-03-31T12:32:34.992Z</time></trkpt><trkpt lat="44.99078631897418" lon="-0.6275488548215338"><ele>11.0</ele><time>2026-03-31T12:32:39.992Z</time></trkpt><trkpt lat="44.9908521195557" lon="-0.6275797208804567"><ele>11.0</ele><time>2026-03-31T12:32:45.992Z</time></trkpt><trkpt lat="44.990923307044106" lon="-0.6276001672027381"><ele>11.428571428571429</ele><time>2026-03-31T12:32:51.992Z</time></trkpt><trkpt lat="44.99098923972088" lon="-0.6276171396169083"><ele>11.857142857142858</ele><time>2026-03-31T12:32:56.992Z</time></trkpt><trkpt lat="44.99105452821252" lon="-0.6276314964265223"><ele>12.285714285714285</ele><time>2026-03-31T12:33:02.992Z</time></trkpt><trkpt lat="44.991128143367256" lon="-0.6276414359984152"><ele>12.714285714285715</ele><time>2026-03-31T12:33:08.992Z</time></trkpt><trkpt lat="44.99119842693113" lon="-0.6276689219774844"><ele>13.142857142857142</ele><time>2026-03-31T12:33:13.992Z</time></trkpt><trkpt lat="44.99126434709762" lon="-0.6277011513054073"><ele>13.571428571428571</ele><time>2026-03-31T12:33:18.992Z</time></trkpt><trkpt lat="44.99133408375847" lon="-0.6277208343113507"><ele>14.0</ele><time>2026-03-31T12:33:24.992Z</time></trkpt><trkpt lat="44.99140983238879" lon="-0.627725670474079"><ele>14.0</ele><time>2026-03-31T12:33:31.992Z</time></trkpt><trkpt lat="44.99147882218717" lon="-0.6277392615779837"><ele>14.0</ele><time>2026-03-31T12:33:37.992Z</time></trkpt><trkpt lat="44.99154955106821" lon="-0.6277629151921157"><ele>14.0</ele><time>2026-03-31T12:33:43.992Z</time></trkpt><trkpt lat="44.99162053846273" lon="-0.627788814338342"><ele>14.0</ele><time>2026-03-31T12:33:49.992Z</time></trkpt><trkpt lat="44.99168992278517" lon="-0.6278093124800637"><ele>14.0</ele><time>2026-03-31T12:33:54.992Z</time></trkpt><trkpt lat="44.99175781174879" lon="-0.6278485180653455"><ele>14.0</ele><time>2026-03-31T12:34:00.992Z</time></trkpt><trkpt lat="44.99182683720274" lon="-0.6278785997943642"><ele>14.0</ele><time>2026-03-31T12:34:05.992Z</time></trkpt><trkpt lat="44.991903302026756" lon="-0.6278945744493573"><ele>14.0</ele><time>2026-03-31T12:34:10.992Z</time></trkpt><trkpt lat="44.991969869778345" lon="-0.6279326047352561"><ele>14.0</ele><time>2026-03-31T12:34:15.992Z</time></trkpt><trkpt lat="44.99203311658022" lon="-0.6279693702677988"><ele>14.0</ele><time>2026-03-31T12:34:22.992Z</time></trkpt><trkpt lat="44.99209538777816" lon="-0.6280083542848038"><ele>14.0</ele><time>2026-03-31T12:34:28.992Z</time></trkpt><trkpt lat="44.99217095280985" lon="-0.6280438852169955"><ele>14.0</ele><time>2026-03-31T12:34:35.992Z</time></trkpt><trkpt lat="44.992232491193946" lon="-0.6280719599268055"><ele>14.0</ele><time>2026-03-31T12:34:39.992Z</time></trkpt><trkpt lat="44.99228945055266" lon="-0.6281238620151882"><ele>14.0</ele><time>2026-03-31T12:34:44.992Z</time></trkpt><trkpt lat="44.99235353471518" lon="-0.6281576150844399"><ele>14.0</ele><time>2026-03-31T12:34:49.992Z</time></trkpt><trkpt lat="44.992413732241815" lon="-0.6281951324070262"><ele>14.0</ele><time>2026-03-31T12:34:55.992Z</time></trkpt><trkpt lat="44.99248143603603" lon="-0.6282357736416642"><ele>14.0</ele><time>2026-03-31T12:35:02.992Z</time></trkpt><trkpt lat="44.99254610039224" lon="-0.6282654827143895"><ele>14.0</ele><time>2026-03-31T12:35:07.992Z</time></trkpt><trkpt lat="44.9926135909749" lon="-0.6283015167845863"><ele>14.0</ele><time>2026-03-31T12:35:13.992Z</time></trkpt><trkpt lat="44.99268534794725" lon="-0.6283306386101509"><ele>14.0</ele><time>2026-03-31T12:35:18.992Z</time></trkpt><trkpt lat="44.99275310706339" lon="-0.6283610274056656"><ele>14.0</ele><time>2026-03-31T12:35:24.992Z</time></trkpt><trkpt lat="44.99282317707945" lon="-0.6284025603167528"><ele>13.857142857142858</ele><time>2026-03-31T12:35:30.992Z</time></trkpt><trkpt lat="44.99288108090632" lon="-0.6284456983157544"><ele>13.714285714285715</ele><time>2026-03-31T12:35:36.992Z</time></trkpt><trkpt lat="44.99294614768361" lon="-0.6285012122844191"><ele>13.571428571428571</ele><time>2026-03-31T12:35:42.992Z</time></trkpt><trkpt lat="44.99299784896135" lon="-0.6285653093329523"><ele>13.428571428571429</ele><time>2026-03-31T12:35:47.992Z</time></trkpt><trkpt lat="44.993052203627734" lon="-0.6286178397242201"><ele>13.285714285714286</ele><time>2026-03-31T12:35:52.992Z</time></trkpt><trkpt lat="44.993110062548766" lon="-0.6286731203794691"><ele>13.142857142857142</ele><time>2026-03-31T12:35:57.992Z</time></trkpt><trkpt lat="44.99316763112508" lon="-0.6287347742295744"><ele>13.0</ele><time>2026-03-31T12:36:03.991Z</time></trkpt><trkpt lat="44.99322584263826" lon="-0.6287785614061601"><ele>13.0</ele><time>2026-03-31T12:36:08.992Z</time></trkpt><trkpt lat="44.99328051053335" lon="-0.6288229314936232"><ele>13.0</ele><time>2026-03-31T12:36:13.992Z</time></trkpt><trkpt lat="44.99334560322303" lon="-0.628881280278946"><ele>13.0</ele><time>2026-03-31T12:36:19.992Z</time></trkpt><trkpt lat="44.99339650422705" lon="-0.6289338709780989"><ele>13.0</ele><time>2026-03-31T12:36:24.992Z</time></trkpt><trkpt lat="44.99345617547018" lon="-0.628979399139832"><ele>13.0</ele><time>2026-03-31T12:36:29.992Z</time></trkpt><trkpt lat="44.99351590545564" lon="-0.6290343375276006"><ele>13.0</ele><time>2026-03-31T12:36:34.992Z</time></trkpt><trkpt lat="44.99346133234972" lon="-0.6290897508124113"><ele>13.0</ele><time>2026-03-31T12:36:42.992Z</time></trkpt><trkpt lat="44.99341651300899" lon="-0.6291767154303787"><ele>13.0</ele><time>2026-03-31T12:36:48.992Z</time></trkpt><trkpt lat="44.99337798941085" lon="-0.6292550092563395"><ele>13.0</ele><time>2026-03-31T12:36:53.992Z</time></trkpt><trkpt lat="44.99334033154071" lon="-0.629330789555105"><ele>13.0</ele><time>2026-03-31T12:36:58.992Z</time></trkpt><trkpt lat="44.9933030639893" lon="-0.6294050538551904"><ele>13.0</ele><time>2026-03-31T12:37:03.992Z</time></trkpt><trkpt lat="44.993266250306526" lon="-0.6294778356221906"><ele>13.0</ele><time>2026-03-31T12:37:08.992Z</time></trkpt><trkpt lat="44.99322332295508" lon="-0.6295523982010337"><ele>13.0</ele><time>2026-03-31T12:37:14.992Z</time></trkpt><trkpt lat="44.993185886500825" lon="-0.629624743703893"><ele>13.0</ele><time>2026-03-31T12:37:19.992Z</time></trkpt><trkpt lat="44.993140517293114" lon="-0.6296912422885577"><ele>13.142857142857142</ele><time>2026-03-31T12:37:24.992Z</time></trkpt><trkpt lat="44.99309289712753" lon="-0.62975799483704"><ele>13.285714285714286</ele><time>2026-03-31T12:37:29.992Z</time></trkpt><trkpt lat="44.99305576765385" lon="-0.629830957537577"><ele>13.428571428571429</ele><time>2026-03-31T12:37:34.992Z</time></trkpt><trkpt lat="44.99301751605647" lon="-0.6299110406012898"><ele>13.571428571428571</ele><time>2026-03-31T12:37:39.992Z</time></trkpt><trkpt lat="44.992971980041524" lon="-0.629981535983325"><ele>13.714285714285715</ele><time>2026-03-31T12:37:44.992Z</time></trkpt><trkpt lat="44.992930131363565" lon="-0.630067978323171"><ele>13.857142857142858</ele><time>2026-03-31T12:37:50.992Z</time></trkpt><trkpt lat="44.99288380187138" lon="-0.6301323270160146"><ele>14.0</ele><time>2026-03-31T12:37:55.992Z</time></trkpt><trkpt lat="44.99283466101649" lon="-0.6301954872177704"><ele>14.0</ele><time>2026-03-31T12:38:00.992Z</time></trkpt><trkpt lat="44.992788770895125" lon="-0.6302714431319731"><ele>14.0</ele><time>2026-03-31T12:38:06.991Z</time></trkpt><trkpt lat="44.992748683166816" lon="-0.6303593993376432"><ele>14.0</ele><time>2026-03-31T12:38:12.991Z</time></trkpt><trkpt lat="44.99271430809922" lon="-0.6304434727206987"><ele>14.0</ele><time>2026-03-31T12:38:17.991Z</time></trkpt><trkpt lat="44.992730673428554" lon="-0.6305401148451035"><ele>14.0</ele><time>2026-03-31T12:38:23.991Z</time></trkpt><trkpt lat="44.99277557927894" lon="-0.6306190858159257"><ele>14.0</ele><time>2026-03-31T12:38:29.991Z</time></trkpt><trkpt lat="44.99278644876463" lon="-0.630712933862371"><ele>14.0</ele><time>2026-03-31T12:38:34.991Z</time></trkpt><trkpt lat="44.99282477945199" lon="-0.6307996240106422"><ele>14.0</ele><time>2026-03-31T12:38:39.991Z</time></trkpt><trkpt lat="44.99286554457355" lon="-0.6308702885678481"><ele>14.0</ele><time>2026-03-31T12:38:44.991Z</time></trkpt><trkpt lat="44.99291103216693" lon="-0.630934583479793"><ele>14.0</ele><time>2026-03-31T12:38:49.991Z</time></trkpt><trkpt lat="44.992960381974456" lon="-0.6309986737600298"><ele>14.0</ele><time>2026-03-31T12:38:54.991Z</time></trkpt><trkpt lat="44.992997788019245" lon="-0.6310886283607882"><ele>14.0</ele><time>2026-03-31T12:39:00.991Z</time></trkpt><trkpt lat="44.99303749016918" lon="-0.6311643513052797"><ele>14.0</ele><time>2026-03-31T12:39:05.991Z</time></trkpt><trkpt lat="44.9930719486533" lon="-0.6312544549739367"><ele>14.0</ele><time>2026-03-31T12:39:11.991Z</time></trkpt><trkpt lat="44.99305034540294" lon="-0.6313593850283262"><ele>14.0</ele><time>2026-03-31T12:39:18.991Z</time></trkpt><trkpt lat="44.99300242827802" lon="-0.6314280657922107"><ele>14.0</ele><time>2026-03-31T12:39:23.991Z</time></trkpt><trkpt lat="44.99295327797472" lon="-0.6314962680158138"><ele>14.0</ele><time>2026-03-31T12:39:33.991Z</time></trkpt><trkpt lat="44.99289584023791" lon="-0.631563305227494"><ele>14.0</ele><time>2026-03-31T12:39:39.991Z</time></trkpt><trkpt lat="44.99284896141132" lon="-0.6316397724494308"><ele>14.0</ele><time>2026-03-31T12:39:45.991Z</time></trkpt><trkpt lat="44.99279589361135" lon="-0.6317025703578646"><ele>14.0</ele><time>2026-03-31T12:39:51.991Z</time></trkpt><trkpt lat="44.99274589135075" lon="-0.6317713203033309"><ele>14.0</ele><time>2026-03-31T12:39:57.991Z</time></trkpt><trkpt lat="44.99269062410691" lon="-0.6318411967725981"><ele>14.0</ele><time>2026-03-31T12:40:03.991Z</time></trkpt><trkpt lat="44.99264154210874" lon="-0.6319053957392158"><ele>14.0</ele><time>2026-03-31T12:40:09.992Z</time></trkpt><trkpt lat="44.99258410726761" lon="-0.6319749904960678"><ele>14.0</ele><time>2026-03-31T12:40:15.991Z</time></trkpt><trkpt lat="44.992527008714134" lon="-0.6320468236310811"><ele>14.0</ele><time>2026-03-31T12:40:21.991Z</time></trkpt><trkpt lat="44.992477567064725" lon="-0.6321080960795584"><ele>14.0</ele><time>2026-03-31T12:40:26.991Z</time></trkpt><trkpt lat="44.99243150395933" lon="-0.6321688459837131"><ele>14.0</ele><time>2026-03-31T12:40:31.991Z</time></trkpt><trkpt lat="44.992389902326096" lon="-0.6322413843778555"><ele>14.0</ele><time>2026-03-31T12:40:36.991Z</time></trkpt><trkpt lat="44.992336144430595" lon="-0.6323120704797974"><ele>14.0</ele><time>2026-03-31T12:40:42.991Z</time></trkpt><trkpt lat="44.99228809166271" lon="-0.6323803992054411"><ele>14.0</ele><time>2026-03-31T12:40:48.991Z</time></trkpt><trkpt lat="44.99226572679269" lon="-0.632473005055498"><ele>14.0</ele><time>2026-03-31T12:40:53.991Z</time></trkpt><trkpt lat="44.99222524560512" lon="-0.6325517911126115"><ele>14.0</ele><time>2026-03-31T12:40:58.991Z</time></trkpt><trkpt lat="44.99217612555912" lon="-0.6326105910999712"><ele>14.0</ele><time>2026-03-31T12:41:03.991Z</time></trkpt><trkpt lat="44.992115199616656" lon="-0.6326596406629527"><ele>14.0</ele><time>2026-03-31T12:41:09.991Z</time></trkpt><trkpt lat="44.99207488186217" lon="-0.6327330585688044"><ele>14.0</ele><time>2026-03-31T12:41:15.991Z</time></trkpt><trkpt lat="44.992029603867515" lon="-0.6328123901580025"><ele>14.0</ele><time>2026-03-31T12:41:21.991Z</time></trkpt><trkpt lat="44.99198165998911" lon="-0.6328846429590724"><ele>14.0</ele><time>2026-03-31T12:41:26.991Z</time></trkpt><trkpt lat="44.99193316601869" lon="-0.6329586927530387"><ele>14.0</ele><time>2026-03-31T12:41:31.991Z</time></trkpt><trkpt lat="44.99188581043819" lon="-0.6330315975323476"><ele>14.0</ele><time>2026-03-31T12:41:36.991Z</time></trkpt><trkpt lat="44.99183734945491" lon="-0.6331048834971333"><ele>14.0</ele><time>2026-03-31T12:41:41.991Z</time></trkpt><trkpt lat="44.99179179528366" lon="-0.6331714695541326"><ele>14.0</ele><time>2026-03-31T12:41:46.991Z</time></trkpt><trkpt lat="44.99173619072182" lon="-0.6332369278312057"><ele>14.0</ele><time>2026-03-31T12:41:52.991Z</time></trkpt><trkpt lat="44.99168532006285" lon="-0.6333094216406028"><ele>13.571428571428571</ele><time>2026-03-31T12:41:58.992Z</time></trkpt><trkpt lat="44.99162454212155" lon="-0.6333759342308596"><ele>13.142857142857142</ele><time>2026-03-31T12:42:04.992Z</time></trkpt><trkpt lat="44.991582881566785" lon="-0.6334490956035095"><ele>12.714285714285715</ele><time>2026-03-31T12:42:09.992Z</time></trkpt><trkpt lat="44.991525103470174" lon="-0.6335132453901894"><ele>12.285714285714285</ele><time>2026-03-31T12:42:15.992Z</time></trkpt><trkpt lat="44.991473770477015" lon="-0.6335817494928562"><ele>11.857142857142858</ele><time>2026-03-31T12:42:20.992Z</time></trkpt><trkpt lat="44.99142026866572" lon="-0.633649744177831"><ele>11.428571428571429</ele><time>2026-03-31T12:42:25.992Z</time></trkpt><trkpt lat="44.99137434751725" lon="-0.6337151625013847"><ele>11.0</ele><time>2026-03-31T12:42:30.992Z</time></trkpt><trkpt lat="44.99132389993141" lon="-0.6337792991722802"><ele>10.714285714285715</ele><time>2026-03-31T12:42:35.992Z</time></trkpt><trkpt lat="44.991273442821665" lon="-0.6338460759530758"><ele>10.428571428571429</ele><time>2026-03-31T12:42:40.992Z</time></trkpt><trkpt lat="44.99122361311105" lon="-0.633908188474953"><ele>10.142857142857142</ele><time>2026-03-31T12:42:45.992Z</time></trkpt><trkpt lat="44.99116785867026" lon="-0.6339725315688011"><ele>9.857142857142858</ele><time>2026-03-31T12:42:50.992Z</time></trkpt><trkpt lat="44.99112097110158" lon="-0.634036547726531"><ele>9.571428571428571</ele><time>2026-03-31T12:42:55.992Z</time></trkpt><trkpt lat="44.99106801150446" lon="-0.6341002545013694"><ele>9.285714285714286</ele><time>2026-03-31T12:43:00.992Z</time></trkpt><trkpt lat="44.991013690679395" lon="-0.6341624261589525"><ele>9.0</ele><time>2026-03-31T12:43:05.992Z</time></trkpt><trkpt lat="44.99096501282931" lon="-0.6342210447990511"><ele>9.000000000000002</ele><time>2026-03-31T12:43:10.992Z</time></trkpt><trkpt lat="44.9909114288283" lon="-0.6342853815004811"><ele>9.0</ele><time>2026-03-31T12:43:15.992Z</time></trkpt><trkpt lat="44.9908563084385" lon="-0.6343428278142943"><ele>9.0</ele><time>2026-03-31T12:43:20.992Z</time></trkpt><trkpt lat="44.99080135361485" lon="-0.63439554921423"><ele>9.0</ele><time>2026-03-31T12:43:25.992Z</time></trkpt><trkpt lat="44.990731394553464" lon="-0.6344314402249953"><ele>9.0</ele><time>2026-03-31T12:43:30.992Z</time></trkpt><trkpt lat="44.99066514441682" lon="-0.6344612926957385"><ele>9.000000000000002</ele><time>2026-03-31T12:43:35.992Z</time></trkpt><trkpt lat="44.99060285990696" lon="-0.6344946722825663"><ele>9.0</ele><time>2026-03-31T12:43:40.992Z</time></trkpt><trkpt lat="44.99054109034251" lon="-0.6345302395674965"><ele>9.428571428571429</ele><time>2026-03-31T12:43:45.992Z</time></trkpt><trkpt lat="44.99046973320163" lon="-0.6345740933172852"><ele>9.857142857142858</ele><time>2026-03-31T12:43:51.992Z</time></trkpt><trkpt lat="44.99041145803142" lon="-0.6346089454953591"><ele>10.285714285714285</ele><time>2026-03-31T12:43:56.992Z</time></trkpt><trkpt lat="44.990346592343386" lon="-0.6346339649426399"><ele>10.714285714285715</ele><time>2026-03-31T12:44:01.992Z</time></trkpt><trkpt lat="44.990281820872426" lon="-0.6346620015527528"><ele>11.142857142857142</ele><time>2026-03-31T12:44:06.992Z</time></trkpt><trkpt lat="44.99021483775009" lon="-0.6346990068183306"><ele>11.571428571428571</ele><time>2026-03-31T12:44:11.992Z</time></trkpt><trkpt lat="44.99014983408006" lon="-0.6347252571279237"><ele>12.0</ele><time>2026-03-31T12:44:16.992Z</time></trkpt><trkpt lat="44.99008887595696" lon="-0.6347536542807766"><ele>11.999999999999998</ele><time>2026-03-31T12:44:21.992Z</time></trkpt><trkpt lat="44.99002289886791" lon="-0.634774770294728"><ele>12.0</ele><time>2026-03-31T12:44:26.992Z</time></trkpt><trkpt lat="44.98994964008512" lon="-0.6347785717187613"><ele>12.0</ele><time>2026-03-31T12:44:31.992Z</time></trkpt><trkpt lat="44.98988540979748" lon="-0.6347937370803148"><ele>12.0</ele><time>2026-03-31T12:44:36.992Z</time></trkpt><trkpt lat="44.98981597023425" lon="-0.6348028035144807"><ele>12.0</ele><time>2026-03-31T12:44:41.992Z</time></trkpt><trkpt lat="44.98974081257919" lon="-0.6347996470023763"><ele>11.999999999999998</ele><time>2026-03-31T12:44:46.992Z</time></trkpt><trkpt lat="44.98966953745665" lon="-0.6348005123318547"><ele>12.0</ele><time>2026-03-31T12:44:51.992Z</time></trkpt><trkpt lat="44.98959618890694" lon="-0.6348016293107621"><ele>11.999999999999998</ele><time>2026-03-31T12:44:56.992Z</time></trkpt><trkpt lat="44.98952670598075" lon="-0.6348072858532934"><ele>12.0</ele><time>2026-03-31T12:45:01.992Z</time></trkpt><trkpt lat="44.98946109656598" lon="-0.6348051642374072"><ele>12.0</ele><time>2026-03-31T12:45:06.992Z</time></trkpt><trkpt lat="44.98939331860321" lon="-0.6348040035698018"><ele>12.0</ele><time>2026-03-31T12:45:11.992Z</time></trkpt><trkpt lat="44.98931989328811" lon="-0.6347988034174052"><ele>12.0</ele><time>2026-03-31T12:45:16.992Z</time></trkpt><trkpt lat="44.98925338057197" lon="-0.6348073279308537"><ele>11.999999999999998</ele><time>2026-03-31T12:45:21.992Z</time></trkpt><trkpt lat="44.98918293661036" lon="-0.634815765473649"><ele>12.0</ele><time>2026-03-31T12:45:26.992Z</time></trkpt><trkpt lat="44.98911150276408" lon="-0.6348145619970225"><ele>11.857142857142856</ele><time>2026-03-31T12:45:31.992Z</time></trkpt><trkpt lat="44.98904792029827" lon="-0.634812866884747"><ele>11.714285714285714</ele><time>2026-03-31T12:45:36.992Z</time></trkpt><trkpt lat="44.98897317099675" lon="-0.6348122712587332"><ele>11.571428571428571</ele><time>2026-03-31T12:45:41.992Z</time></trkpt><trkpt lat="44.98890249174244" lon="-0.6348084688673362"><ele>11.428571428571427</ele><time>2026-03-31T12:45:46.992Z</time></trkpt><trkpt lat="44.988838812108646" lon="-0.634818103734556"><ele>11.285714285714285</ele><time>2026-03-31T12:45:51.992Z</time></trkpt><trkpt lat="44.988776619686234" lon="-0.634838607950072"><ele>11.142857142857142</ele><time>2026-03-31T12:45:56.992Z</time></trkpt><trkpt lat="44.98871719608344" lon="-0.6348909543258229"><ele>11.0</ele><time>2026-03-31T12:46:01.992Z</time></trkpt><trkpt lat="44.98865967923902" lon="-0.6349318396897674"><ele>11.0</ele><time>2026-03-31T12:46:05.992Z</time></trkpt><trkpt lat="44.988602454015776" lon="-0.6349775832799774"><ele>11.0</ele><time>2026-03-31T12:46:10.992Z</time></trkpt><trkpt lat="44.98853879179383" lon="-0.6350267578528247"><ele>11.0</ele><time>2026-03-31T12:46:16.992Z</time></trkpt><trkpt lat="44.988472662823256" lon="-0.6350681391201872"><ele>11.0</ele><time>2026-03-31T12:46:21.992Z</time></trkpt><trkpt lat="44.98840392670002" lon="-0.6351046469702422"><ele>11.0</ele><time>2026-03-31T12:46:26.991Z</time></trkpt><trkpt lat="44.988334589312295" lon="-0.6351173599709372"><ele>11.0</ele><time>2026-03-31T12:46:31.991Z</time></trkpt><trkpt lat="44.988262817591156" lon="-0.6351179319280512"><ele>11.0</ele><time>2026-03-31T12:46:35.991Z</time></trkpt><trkpt lat="44.98819027506649" lon="-0.6351071909259922"><ele>11.142857142857142</ele><time>2026-03-31T12:46:39.991Z</time></trkpt><trkpt lat="44.9881074100202" lon="-0.6351141178104254"><ele>11.285714285714285</ele><time>2026-03-31T12:46:42.991Z</time></trkpt><trkpt lat="44.988034973578785" lon="-0.6351244183269317"><ele>11.428571428571427</ele><time>2026-03-31T12:46:45.991Z</time></trkpt><trkpt lat="44.98796717332811" lon="-0.6351325905633836"><ele>11.571428571428571</ele><time>2026-03-31T12:46:48.991Z</time></trkpt><trkpt lat="44.9878933363644" lon="-0.6351352500565547"><ele>11.714285714285714</ele><time>2026-03-31T12:46:51.991Z</time></trkpt><trkpt lat="44.98781797946229" lon="-0.6351343553953798"><ele>11.857142857142856</ele><time>2026-03-31T12:46:54.991Z</time></trkpt><trkpt lat="44.98774434950882" lon="-0.6351304101376166"><ele>12.0</ele><time>2026-03-31T12:46:57.991Z</time></trkpt><trkpt lat="44.98766356829786" lon="-0.6351327351049031"><ele>11.999999999999998</ele><time>2026-03-31T12:47:00.991Z</time></trkpt><trkpt lat="44.987597121993964" lon="-0.6351293695114221"><ele>12.0</ele><time>2026-03-31T12:47:03.991Z</time></trkpt><trkpt lat="44.98752997102044" lon="-0.6351265126012696"><ele>12.0</ele><time>2026-03-31T12:47:06.991Z</time></trkpt><trkpt lat="44.98744903467126" lon="-0.6351311374033742"><ele>12.0</ele><time>2026-03-31T12:47:09.991Z</time></trkpt><trkpt lat="44.98737781741069" lon="-0.6351385135302062"><ele>12.0</ele><time>2026-03-31T12:47:12.991Z</time></trkpt><trkpt lat="44.98729679292215" lon="-0.635129596449526"><ele>11.999999999999998</ele><time>2026-03-31T12:47:16.991Z</time></trkpt><trkpt lat="44.98722637023964" lon="-0.6351213669223602"><ele>12.0</ele><time>2026-03-31T12:47:19.991Z</time></trkpt><trkpt lat="44.9871453942282" lon="-0.635128227640788"><ele>11.999999999999998</ele><time>2026-03-31T12:47:24.991Z</time></trkpt><trkpt lat="44.98708009815023" lon="-0.635122835194229"><ele>12.0</ele><time>2026-03-31T12:47:30.991Z</time></trkpt><trkpt lat="44.98701380304583" lon="-0.6351239178905781"><ele>12.0</ele><time>2026-03-31T12:47:36.991Z</time></trkpt><trkpt lat="44.98693825089527" lon="-0.6351217129502076"><ele>12.0</ele><time>2026-03-31T12:47:42.991Z</time></trkpt><trkpt lat="44.98686803515847" lon="-0.635121518396"><ele>12.0</ele><time>2026-03-31T12:47:49.991Z</time></trkpt><trkpt lat="44.986796129809335" lon="-0.635127697285811"><ele>11.999999999999998</ele><time>2026-03-31T12:47:56.991Z</time></trkpt><trkpt lat="44.986732345938385" lon="-0.6351215116929273"><ele>12.0</ele><time>2026-03-31T12:48:01.991Z</time></trkpt><trkpt lat="44.986666499251236" lon="-0.6351300592771016"><ele>11.999999999999998</ele><time>2026-03-31T12:48:06.991Z</time></trkpt><trkpt lat="44.98659567134974" lon="-0.6351372606573226"><ele>12.0</ele><time>2026-03-31T12:48:12.991Z</time></trkpt><trkpt lat="44.98652218768557" lon="-0.6351393703452284"><ele>12.0</ele><time>2026-03-31T12:48:18.991Z</time></trkpt><trkpt lat="44.98645612152534" lon="-0.6351467776107647"><ele>12.0</ele><time>2026-03-31T12:48:23.991Z</time></trkpt><trkpt lat="44.98639337336676" lon="-0.6351575981909104"><ele>12.0</ele><time>2026-03-31T12:48:28.991Z</time></trkpt><trkpt lat="44.986330367101836" lon="-0.6351704002778691"><ele>11.999999999999998</ele><time>2026-03-31T12:48:33.99Z</time></trkpt><trkpt lat="44.98626685146669" lon="-0.6352041760610647"><ele>12.0</ele><time>2026-03-31T12:48:38.991Z</time></trkpt><trkpt lat="44.98620588282911" lon="-0.6351614820955519"><ele>11.999999999999998</ele><time>2026-03-31T12:48:45.991Z</time></trkpt><trkpt lat="44.98614195935439" lon="-0.635141387154259"><ele>12.0</ele><time>2026-03-31T12:48:51.991Z</time></trkpt><trkpt lat="44.98607210750605" lon="-0.6351439740607469"><ele>12.0</ele><time>2026-03-31T12:48:57.991Z</time></trkpt><trkpt lat="44.986004500240874" lon="-0.6351607920286879"><ele>12.0</ele><time>2026-03-31T12:49:03.991Z</time></trkpt><trkpt lat="44.98594135058186" lon="-0.6351677800474311"><ele>12.0</ele><time>2026-03-31T12:49:08.991Z</time></trkpt><trkpt lat="44.98587483140341" lon="-0.635178420041616"><ele>11.999999999999998</ele><time>2026-03-31T12:49:14.991Z</time></trkpt><trkpt lat="44.98579749264296" lon="-0.635181713937502"><ele>12.0</ele><time>2026-03-31T12:49:20.991Z</time></trkpt><trkpt lat="44.98572655357919" lon="-0.6351903182675172"><ele>11.999999999999998</ele><time>2026-03-31T12:49:26.991Z</time></trkpt><trkpt lat="44.98565710979946" lon="-0.635188300410834"><ele>12.0</ele><time>2026-03-31T12:49:32.991Z</time></trkpt><trkpt lat="44.985591049736776" lon="-0.6351834636411546"><ele>12.0</ele><time>2026-03-31T12:49:38.991Z</time></trkpt><trkpt lat="44.985525106368016" lon="-0.6351857855955524"><ele>12.0</ele><time>2026-03-31T12:49:44.991Z</time></trkpt><trkpt lat="44.985454687445475" lon="-0.6351786250875855"><ele>12.0</ele><time>2026-03-31T12:49:50.991Z</time></trkpt><trkpt lat="44.98538816203548" lon="-0.6351793200058076"><ele>11.999999999999998</ele><time>2026-03-31T12:49:55.991Z</time></trkpt><trkpt lat="44.98531725161385" lon="-0.6351847362672306"><ele>12.0</ele><time>2026-03-31T12:50:01.991Z</time></trkpt><trkpt lat="44.98525324224655" lon="-0.6351848542509273"><ele>11.999999999999998</ele><time>2026-03-31T12:50:07.991Z</time></trkpt><trkpt lat="44.985182026829484" lon="-0.6351838166879406"><ele>12.0</ele><time>2026-03-31T12:50:13.991Z</time></trkpt><trkpt lat="44.985116506938965" lon="-0.6351800676429338"><ele>12.0</ele><time>2026-03-31T12:50:18.991Z</time></trkpt><trkpt lat="44.98504698571591" lon="-0.6351413091073823"><ele>12.0</ele><time>2026-03-31T12:50:24.991Z</time></trkpt><trkpt lat="44.98501973753159" lon="-0.6350502176912312"><ele>12.0</ele><time>2026-03-31T12:50:30.991Z</time></trkpt><trkpt lat="44.98504500271985" lon="-0.6349525314741364"><ele>11.999999999999998</ele><time>2026-03-31T12:50:36.991Z</time></trkpt><trkpt lat="44.985058908333095" lon="-0.6348586248438882"><ele>12.0</ele><time>2026-03-31T12:50:42.991Z</time></trkpt><trkpt lat="44.985083585169434" lon="-0.6347565517010101"><ele>11.999999999999998</ele><time>2026-03-31T12:50:48.991Z</time></trkpt><trkpt lat="44.98509227542638" lon="-0.6346558132821893"><ele>12.0</ele><time>2026-03-31T12:50:54.991Z</time></trkpt><trkpt lat="44.98511926810256" lon="-0.6345572762546146"><ele>12.0</ele><time>2026-03-31T12:51:00.991Z</time></trkpt><trkpt lat="44.985138532424465" lon="-0.6344595294662446"><ele>12.0</ele><time>2026-03-31T12:51:05.991Z</time></trkpt><trkpt lat="44.98517652865332" lon="-0.634374112888987"><ele>12.0</ele><time>2026-03-31T12:51:11.991Z</time></trkpt><trkpt lat="44.98521642536169" lon="-0.6342992970995616"><ele>11.999999999999998</ele><time>2026-03-31T12:51:15.991Z</time></trkpt><trkpt lat="44.98526133629354" lon="-0.6342112894481291"><ele>12.0</ele><time>2026-03-31T12:51:21.991Z</time></trkpt><trkpt lat="44.98529577853112" lon="-0.63412767551717"><ele>11.857142857142856</ele><time>2026-03-31T12:51:26.991Z</time></trkpt><trkpt lat="44.98533408095951" lon="-0.6340400350559232"><ele>11.714285714285714</ele><time>2026-03-31T12:51:32.991Z</time></trkpt><trkpt lat="44.985364163292914" lon="-0.6339485514406578"><ele>11.571428571428571</ele><time>2026-03-31T12:51:38.991Z</time></trkpt><trkpt lat="44.98539471067537" lon="-0.633866952751164"><ele>11.428571428571427</ele><time>2026-03-31T12:51:43.991Z</time></trkpt><trkpt lat="44.98543444639479" lon="-0.6337783738399386"><ele>11.285714285714285</ele><time>2026-03-31T12:51:49.991Z</time></trkpt><trkpt lat="44.985471787770294" lon="-0.6336889836878364"><ele>11.142857142857142</ele><time>2026-03-31T12:51:55.991Z</time></trkpt><trkpt lat="44.98551063675207" lon="-0.6335975036485925"><ele>11.0</ele><time>2026-03-31T12:52:01.991Z</time></trkpt><trkpt lat="44.98554088576614" lon="-0.6335159390659819"><ele>10.857142857142858</ele><time>2026-03-31T12:52:06.991Z</time></trkpt><trkpt lat="44.98556759282271" lon="-0.633434536085172"><ele>10.714285714285714</ele><time>2026-03-31T12:52:11.991Z</time></trkpt><trkpt lat="44.985599908130496" lon="-0.6333369906641659"><ele>10.571428571428571</ele><time>2026-03-31T12:52:17.991Z</time></trkpt><trkpt lat="44.985637894491774" lon="-0.6332623076291265"><ele>10.428571428571429</ele><time>2026-03-31T12:52:22.991Z</time></trkpt><trkpt lat="44.98566739356813" lon="-0.6331714791732981"><ele>10.285714285714286</ele><time>2026-03-31T12:52:28.991Z</time></trkpt><trkpt lat="44.98569668736285" lon="-0.6330878970556303"><ele>10.142857142857142</ele><time>2026-03-31T12:52:33.991Z</time></trkpt><trkpt lat="44.98574147484831" lon="-0.6329990102164982"><ele>10.0</ele><time>2026-03-31T12:52:39.991Z</time></trkpt><trkpt lat="44.98577657316692" lon="-0.6329063852600284"><ele>10.0</ele><time>2026-03-31T12:52:45.991Z</time></trkpt><trkpt lat="44.985808146342585" lon="-0.632817920956927"><ele>10.0</ele><time>2026-03-31T12:52:51.99Z</time></trkpt><trkpt lat="44.98583953888273" lon="-0.6327283389791327"><ele>10.0</ele><time>2026-03-31T12:52:57.99Z</time></trkpt><trkpt lat="44.98587139688878" lon="-0.6326395348952845"><ele>10.0</ele><time>2026-03-31T12:53:03.99Z</time></trkpt><trkpt lat="44.98589785522042" lon="-0.6325423849962675"><ele>10.0</ele><time>2026-03-31T12:53:09.99Z</time></trkpt><trkpt lat="44.98592358617325" lon="-0.6324575153820908"><ele>10.0</ele><time>2026-03-31T12:53:14.99Z</time></trkpt><trkpt lat="44.98594327663978" lon="-0.63237162885215"><ele>10.0</ele><time>2026-03-31T12:53:19.99Z</time></trkpt><trkpt lat="44.98596098205367" lon="-0.6322705759667484"><ele>10.142857142857142</ele><time>2026-03-31T12:53:25.99Z</time></trkpt><trkpt lat="44.985979595832234" lon="-0.6321740149124665"><ele>10.285714285714286</ele><time>2026-03-31T12:53:30.99Z</time></trkpt><trkpt lat="44.986004430865385" lon="-0.6320778587942735"><ele>10.428571428571429</ele><time>2026-03-31T12:53:36.99Z</time></trkpt><trkpt lat="44.98602467708548" lon="-0.6319879891299901"><ele>10.571428571428571</ele><time>2026-03-31T12:53:41.99Z</time></trkpt><trkpt lat="44.98604129138221" lon="-0.6319017477587762"><ele>10.714285714285714</ele><time>2026-03-31T12:53:46.99Z</time></trkpt><trkpt lat="44.986068623048645" lon="-0.6318010227222942"><ele>10.857142857142858</ele><time>2026-03-31T12:53:52.99Z</time></trkpt><trkpt lat="44.98609861040148" lon="-0.6317198391362127"><ele>11.0</ele><time>2026-03-31T12:53:57.99Z</time></trkpt><trkpt lat="44.9861169172159" lon="-0.6316266279564214"><ele>11.0</ele><time>2026-03-31T12:54:02.99Z</time></trkpt><trkpt lat="44.98613363413023" lon="-0.6315387930976499"><ele>11.0</ele><time>2026-03-31T12:54:07.99Z</time></trkpt><trkpt lat="44.986140954675676" lon="-0.6314443365815469"><ele>11.0</ele><time>2026-03-31T12:54:12.99Z</time></trkpt><trkpt lat="44.98615756937187" lon="-0.6313487180829498"><ele>11.0</ele><time>2026-03-31T12:54:18.99Z</time></trkpt><trkpt lat="44.986166327689794" lon="-0.6312598980550468"><ele>11.0</ele><time>2026-03-31T12:54:23.99Z</time></trkpt><trkpt lat="44.986167215400876" lon="-0.6311698879034203"><ele>11.0</ele><time>2026-03-31T12:54:28.99Z</time></trkpt><trkpt lat="44.98620521877125" lon="-0.6310851367541517"><ele>11.0</ele><time>2026-03-31T12:54:34.99Z</time></trkpt><trkpt lat="44.98624688400858" lon="-0.6309926769119178"><ele>11.285714285714286</ele><time>2026-03-31T12:54:40.99Z</time></trkpt><trkpt lat="44.98625738823071" lon="-0.6308905649293824"><ele>11.571428571428571</ele><time>2026-03-31T12:54:46.99Z</time></trkpt><trkpt lat="44.98626737500981" lon="-0.6307987169145148"><ele>11.857142857142858</ele><time>2026-03-31T12:54:51.99Z</time></trkpt><trkpt lat="44.98628240608739" lon="-0.630696659564157"><ele>12.142857142857142</ele><time>2026-03-31T12:54:57.989Z</time></trkpt><trkpt lat="44.98629964563082" lon="-0.6306053590057866"><ele>12.428571428571429</ele><time>2026-03-31T12:55:03.99Z</time></trkpt><trkpt lat="44.98631554775159" lon="-0.6305106887197766"><ele>12.714285714285714</ele><time>2026-03-31T12:55:10.99Z</time></trkpt><trkpt lat="44.98631972401217" lon="-0.6304123152900936"><ele>13.0</ele><time>2026-03-31T12:55:16.99Z</time></trkpt><trkpt lat="44.98627358401455" lon="-0.6303506632179516"><ele>13.0</ele><time>2026-03-31T12:55:21.99Z</time></trkpt><trkpt lat="44.98619706256636" lon="-0.6303357715116862"><ele>13.0</ele><time>2026-03-31T12:55:27.99Z</time></trkpt><trkpt lat="44.986135444598204" lon="-0.6302953018676526"><ele>13.0</ele><time>2026-03-31T12:55:33.99Z</time></trkpt><trkpt lat="44.98607280121145" lon="-0.6302603066624363"><ele>13.0</ele><time>2026-03-31T12:55:39.99Z</time></trkpt><trkpt lat="44.98600783622375" lon="-0.6302390558199814"><ele>13.0</ele><time>2026-03-31T12:55:45.99Z</time></trkpt><trkpt lat="44.98594355115965" lon="-0.6302284258809806"><ele>13.0</ele><time>2026-03-31T12:55:50.99Z</time></trkpt><trkpt lat="44.9858791990828" lon="-0.6302174885787015"><ele>13.0</ele><time>2026-03-31T12:55:55.99Z</time></trkpt><trkpt lat="44.98582353983179" lon="-0.6301718464262543"><ele>13.428571428571427</ele><time>2026-03-31T12:56:00.99Z</time></trkpt><trkpt lat="44.98578321480585" lon="-0.6300947592381004"><ele>13.857142857142858</ele><time>2026-03-31T12:56:06.99Z</time></trkpt><trkpt lat="44.98577949709966" lon="-0.6300038461576769"><ele>14.285714285714285</ele><time>2026-03-31T12:56:11.99Z</time></trkpt><trkpt lat="44.98578124701026" lon="-0.6298993686373577"><ele>14.714285714285714</ele><time>2026-03-31T12:56:17.99Z</time></trkpt><trkpt lat="44.98577257033113" lon="-0.6297858995895754"><ele>15.142857142857142</ele><time>2026-03-31T12:56:23.99Z</time></trkpt><trkpt lat="44.985756356265746" lon="-0.629687090289692"><ele>15.571428571428571</ele><time>2026-03-31T12:56:29.99Z</time></trkpt><trkpt lat="44.98573793410033" lon="-0.6295837513560115"><ele>16.0</ele><time>2026-03-31T12:56:35.99Z</time></trkpt><trkpt lat="44.985727246593584" lon="-0.6294805388365974"><ele>16.0</ele><time>2026-03-31T12:56:41.99Z</time></trkpt><trkpt lat="44.985705242975996" lon="-0.6293829139729821"><ele>15.999999999999998</ele><time>2026-03-31T12:56:47.99Z</time></trkpt><trkpt lat="44.98568985147405" lon="-0.6292903173872401"><ele>16.0</ele><time>2026-03-31T12:56:52.99Z</time></trkpt><trkpt lat="44.98567665121818" lon="-0.6291965922395348"><ele>16.0</ele><time>2026-03-31T12:56:58.99Z</time></trkpt><trkpt lat="44.98566314974258" lon="-0.6290952840448601"><ele>15.999999999999998</ele><time>2026-03-31T12:57:04.989Z</time></trkpt><trkpt lat="44.98564573664986" lon="-0.6290013599059533"><ele>16.0</ele><time>2026-03-31T12:57:10.989Z</time></trkpt><trkpt lat="44.985611400254776" lon="-0.6289059684910828"><ele>16.0</ele><time>2026-03-31T12:57:16.989Z</time></trkpt><trkpt lat="44.98557904206368" lon="-0.6288174566964353"><ele>16.0</ele><time>2026-03-31T12:57:22.989Z</time></trkpt><trkpt lat="44.9855515662453" lon="-0.6287251465049734"><ele>15.999999999999998</ele><time>2026-03-31T12:57:28.989Z</time></trkpt><trkpt lat="44.98552701447799" lon="-0.6286312122990972"><ele>16.0</ele><time>2026-03-31T12:57:34.989Z</time></trkpt><trkpt lat="44.98549449904145" lon="-0.6285384264222053"><ele>16.0</ele><time>2026-03-31T12:57:40.989Z</time></trkpt><trkpt lat="44.985464089691035" lon="-0.6284577362791953"><ele>15.999999999999998</ele><time>2026-03-31T12:57:45.989Z</time></trkpt><trkpt lat="44.98542516447101" lon="-0.6283690131031308"><ele>16.0</ele><time>2026-03-31T12:57:51.989Z</time></trkpt><trkpt lat="44.98539161935293" lon="-0.6282823468259768"><ele>16.0</ele><time>2026-03-31T12:57:56.989Z</time></trkpt><trkpt lat="44.985359269664826" lon="-0.6281939226594521"><ele>15.857142857142856</ele><time>2026-03-31T12:58:02.989Z</time></trkpt><trkpt lat="44.9853210937146" lon="-0.6281108772501832"><ele>15.714285714285712</ele><time>2026-03-31T12:58:07.989Z</time></trkpt><trkpt lat="44.9852867204447" lon="-0.6280299741385146"><ele>15.571428571428571</ele><time>2026-03-31T12:58:13.989Z</time></trkpt><trkpt lat="44.98523571686831" lon="-0.6279560573921618"><ele>15.428571428571427</ele><time>2026-03-31T12:58:19.989Z</time></trkpt><trkpt lat="44.985204014399926" lon="-0.6278715128262252"><ele>15.285714285714285</ele><time>2026-03-31T12:58:24.989Z</time></trkpt><trkpt lat="44.98515442469354" lon="-0.6278074198349425"><ele>15.142857142857142</ele><time>2026-03-31T12:58:29.989Z</time></trkpt><trkpt lat="44.985110935363245" lon="-0.6277180530838185"><ele>15.0</ele><time>2026-03-31T12:58:35.989Z</time></trkpt><trkpt lat="44.98507213946445" lon="-0.6276249278183501"><ele>14.857142857142858</ele><time>2026-03-31T12:58:41.989Z</time></trkpt><trkpt lat="44.985044081055285" lon="-0.6275373085177305"><ele>14.714285714285714</ele><time>2026-03-31T12:58:46.989Z</time></trkpt><trkpt lat="44.985024349035434" lon="-0.6274412226013907"><ele>14.571428571428571</ele><time>2026-03-31T12:58:51.989Z</time></trkpt><trkpt lat="44.98500424401541" lon="-0.6273457576333208"><ele>14.428571428571429</ele><time>2026-03-31T12:58:56.989Z</time></trkpt><trkpt lat="44.98499213997382" lon="-0.6272563883349347"><ele>14.285714285714285</ele><time>2026-03-31T12:59:01.989Z</time></trkpt><trkpt lat="44.98497471523535" lon="-0.6271489092410624"><ele>14.142857142857142</ele><time>2026-03-31T12:59:07.989Z</time></trkpt><trkpt lat="44.984960546741895" lon="-0.6270458915635856"><ele>14.0</ele><time>2026-03-31T12:59:13.989Z</time></trkpt><trkpt lat="44.98494917758706" lon="-0.6269492733541888"><ele>13.857142857142858</ele><time>2026-03-31T12:59:19.989Z</time></trkpt><trkpt lat="44.98493673870934" lon="-0.6268528757893116"><ele>13.714285714285715</ele><time>2026-03-31T12:59:25.989Z</time></trkpt><trkpt lat="44.984910102689746" lon="-0.6267560355372468"><ele>13.571428571428571</ele><time>2026-03-31T12:59:31.989Z</time></trkpt><trkpt lat="44.984866638581906" lon="-0.6266801183119294"><ele>13.428571428571429</ele><time>2026-03-31T12:59:36.989Z</time></trkpt><trkpt lat="44.98483408761611" lon="-0.6265873510358115"><ele>13.285714285714286</ele><time>2026-03-31T12:59:42.989Z</time></trkpt><trkpt lat="44.98481274145652" lon="-0.6264884277560192"><ele>13.142857142857142</ele><time>2026-03-31T12:59:48.989Z</time></trkpt><trkpt lat="44.98479270820523" lon="-0.6263982418954631"><ele>13.0</ele><time>2026-03-31T12:59:54.989Z</time></trkpt><trkpt lat="44.98477390046651" lon="-0.626309863357267"><ele>13.0</ele><time>2026-03-31T12:59:59.989Z</time></trkpt><trkpt lat="44.98474757022516" lon="-0.6262229892512633"><ele>13.0</ele><time>2026-03-31T13:00:04.989Z</time></trkpt><trkpt lat="44.98471334381515" lon="-0.6261387122665067"><ele>13.0</ele><time>2026-03-31T13:00:09.989Z</time></trkpt><trkpt lat="44.98467669617846" lon="-0.6260488646568501"><ele>13.0</ele><time>2026-03-31T13:00:15.989Z</time></trkpt><trkpt lat="44.98464154213549" lon="-0.6259640840050187"><ele>13.0</ele><time>2026-03-31T13:00:22.989Z</time></trkpt><trkpt lat="44.984609519192055" lon="-0.625884781032223"><ele>13.0</ele><time>2026-03-31T13:00:27.989Z</time></trkpt><trkpt lat="44.98456590072776" lon="-0.6257950946331782"><ele>13.0</ele><time>2026-03-31T13:00:33.989Z</time></trkpt><trkpt lat="44.984526299016515" lon="-0.6257230455588576"><ele>12.857142857142856</ele><time>2026-03-31T13:00:38.989Z</time></trkpt><trkpt lat="44.98451784868201" lon="-0.625634339079046"><ele>12.714285714285715</ele><time>2026-03-31T13:00:43.989Z</time></trkpt><trkpt lat="44.98450207820338" lon="-0.6255252191731753"><ele>12.571428571428571</ele><time>2026-03-31T13:00:49.989Z</time></trkpt><trkpt lat="44.9844978783667" lon="-0.6254338217205833"><ele>12.428571428571427</ele><time>2026-03-31T13:00:55.989Z</time></trkpt><trkpt lat="44.98447476103491" lon="-0.6253361088360325"><ele>12.285714285714285</ele><time>2026-03-31T13:01:01.989Z</time></trkpt><trkpt lat="44.9844356574217" lon="-0.6252437477302386"><ele>12.142857142857142</ele><time>2026-03-31T13:01:07.99Z</time></trkpt><trkpt lat="44.98440629162532" lon="-0.6251473662879298"><ele>12.0</ele><time>2026-03-31T13:01:13.989Z</time></trkpt><trkpt lat="44.98437297179761" lon="-0.6250490855942156"><ele>11.857142857142856</ele><time>2026-03-31T13:01:19.989Z</time></trkpt><trkpt lat="44.98433136062325" lon="-0.6249812296465118"><ele>11.714285714285714</ele><time>2026-03-31T13:01:24.989Z</time></trkpt><trkpt lat="44.9843394041985" lon="-0.6248868262040919"><ele>11.571428571428571</ele><time>2026-03-31T13:01:29.989Z</time></trkpt><trkpt lat="44.98429596981552" lon="-0.6248022578349359"><ele>11.428571428571427</ele><time>2026-03-31T13:01:35.989Z</time></trkpt><trkpt lat="44.98428239134944" lon="-0.6247006641314216"><ele>11.285714285714285</ele><time>2026-03-31T13:01:41.989Z</time></trkpt><trkpt lat="44.984281950152706" lon="-0.6246116266959112"><ele>11.142857142857142</ele><time>2026-03-31T13:01:46.989Z</time></trkpt><trkpt lat="44.98429227512921" lon="-0.6245178271263859"><ele>11.0</ele><time>2026-03-31T13:01:51.989Z</time></trkpt><trkpt lat="44.98431802658351" lon="-0.6244188536985026"><ele>10.857142857142858</ele><time>2026-03-31T13:01:57.989Z</time></trkpt><trkpt lat="44.98434920828204" lon="-0.6243410887848755"><ele>10.714285714285714</ele><time>2026-03-31T13:02:02.989Z</time></trkpt><trkpt lat="44.98438995923129" lon="-0.6242577913883337"><ele>10.571428571428571</ele><time>2026-03-31T13:02:08.989Z</time></trkpt><trkpt lat="44.984423883139776" lon="-0.6241815514220573"><ele>10.428571428571429</ele><time>2026-03-31T13:02:13.989Z</time></trkpt><trkpt lat="44.98446920101489" lon="-0.6240997307615199"><ele>10.285714285714286</ele><time>2026-03-31T13:02:19.989Z</time></trkpt><trkpt lat="44.98451075569953" lon="-0.6240302399227262"><ele>10.142857142857142</ele><time>2026-03-31T13:02:24.99Z</time></trkpt><trkpt lat="44.9845502557212" lon="-0.6239349638761288"><ele>10.0</ele><time>2026-03-31T13:02:30.99Z</time></trkpt><trkpt lat="44.98458943575935" lon="-0.6238515818856216"><ele>10.0</ele><time>2026-03-31T13:02:36.99Z</time></trkpt><trkpt lat="44.98462874373517" lon="-0.623754625646067"><ele>10.0</ele><time>2026-03-31T13:02:42.99Z</time></trkpt><trkpt lat="44.98465998912762" lon="-0.623669098159743"><ele>10.0</ele><time>2026-03-31T13:02:48.99Z</time></trkpt><trkpt lat="44.984686911197265" lon="-0.6235807832581647"><ele>10.0</ele><time>2026-03-31T13:02:53.99Z</time></trkpt><trkpt lat="44.98470862808556" lon="-0.6234880026740197"><ele>10.0</ele><time>2026-03-31T13:02:59.99Z</time></trkpt><trkpt lat="44.98473225842537" lon="-0.6233836629172711"><ele>10.0</ele><time>2026-03-31T13:03:05.99Z</time></trkpt><trkpt lat="44.98475466286607" lon="-0.6232983805582567"><ele>10.0</ele><time>2026-03-31T13:03:10.989Z</time></trkpt><trkpt lat="44.98477388153386" lon="-0.6231989461118667"><ele>10.0</ele><time>2026-03-31T13:03:16.989Z</time></trkpt><trkpt lat="44.9847903680673" lon="-0.6230967546335668"><ele>10.0</ele><time>2026-03-31T13:03:22.988Z</time></trkpt><trkpt lat="44.98480758611367" lon="-0.62300412484969"><ele>10.0</ele><time>2026-03-31T13:03:28.989Z</time></trkpt><trkpt lat="44.984813240612205" lon="-0.6229026684371628"><ele>10.0</ele><time>2026-03-31T13:03:34.989Z</time></trkpt><trkpt lat="44.98480584107297" lon="-0.6228116734843981"><ele>10.0</ele><time>2026-03-31T13:03:39.989Z</time></trkpt><trkpt lat="44.984830999868734" lon="-0.6227089209153134"><ele>10.0</ele><time>2026-03-31T13:03:45.989Z</time></trkpt><trkpt lat="44.984850649390225" lon="-0.6226112803354609"><ele>10.0</ele><time>2026-03-31T13:03:51.989Z</time></trkpt><trkpt lat="44.9848574716909" lon="-0.6225053252576022"><ele>10.0</ele><time>2026-03-31T13:03:57.989Z</time></trkpt><trkpt lat="44.984867709543124" lon="-0.6224021827813003"><ele>10.0</ele><time>2026-03-31T13:04:03.989Z</time></trkpt><trkpt lat="44.98487142138677" lon="-0.6223104242871176"><ele>10.0</ele><time>2026-03-31T13:04:08.989Z</time></trkpt><trkpt lat="44.98487513550383" lon="-0.6222065960208293"><ele>10.0</ele><time>2026-03-31T13:04:14.989Z</time></trkpt><trkpt lat="44.98487112072284" lon="-0.6221045154076617"><ele>10.0</ele><time>2026-03-31T13:04:20.989Z</time></trkpt><trkpt lat="44.98486689230126" lon="-0.6219980837846263"><ele>10.0</ele><time>2026-03-31T13:04:26.989Z</time></trkpt><trkpt lat="44.98485983098204" lon="-0.6219084641940494"><ele>10.0</ele><time>2026-03-31T13:04:31.989Z</time></trkpt><trkpt lat="44.984851908795264" lon="-0.6218044150495908"><ele>10.0</ele><time>2026-03-31T13:04:37.989Z</time></trkpt><trkpt lat="44.984840650762166" lon="-0.6216975517701945"><ele>10.0</ele><time>2026-03-31T13:04:43.989Z</time></trkpt><trkpt lat="44.98485215596111" lon="-0.6216005801833948"><ele>10.0</ele><time>2026-03-31T13:04:47.989Z</time></trkpt><trkpt lat="44.984864002311575" lon="-0.6214855642794473"><ele>10.0</ele><time>2026-03-31T13:04:52.989Z</time></trkpt><trkpt lat="44.98486537040491" lon="-0.6213717590531357"><ele>10.0</ele><time>2026-03-31T13:04:57.989Z</time></trkpt><trkpt lat="44.98484430427035" lon="-0.6212679715442516"><ele>10.0</ele><time>2026-03-31T13:05:03.989Z</time></trkpt><trkpt lat="44.984822927935205" lon="-0.6211687169921507"><ele>10.0</ele><time>2026-03-31T13:05:09.989Z</time></trkpt><trkpt lat="44.98480515725683" lon="-0.62107893311139"><ele>10.0</ele><time>2026-03-31T13:05:15.989Z</time></trkpt><trkpt lat="44.98479125130848" lon="-0.6209776185285805"><ele>10.0</ele><time>2026-03-31T13:05:21.988Z</time></trkpt><trkpt lat="44.984776852002994" lon="-0.6208754283922254"><ele>10.0</ele><time>2026-03-31T13:05:27.989Z</time></trkpt><trkpt lat="44.984766574889846" lon="-0.6207709974066233"><ele>10.0</ele><time>2026-03-31T13:05:33.988Z</time></trkpt><trkpt lat="44.98475650949132" lon="-0.6206673439879081"><ele>10.0</ele><time>2026-03-31T13:05:39.988Z</time></trkpt><trkpt lat="44.98474664227473" lon="-0.6205592775993616"><ele>10.0</ele><time>2026-03-31T13:05:45.988Z</time></trkpt><trkpt lat="44.98473399862179" lon="-0.6204585853909609"><ele>10.0</ele><time>2026-03-31T13:05:51.988Z</time></trkpt><trkpt lat="44.98471805978625" lon="-0.6203545017829342"><ele>10.0</ele><time>2026-03-31T13:05:57.988Z</time></trkpt><trkpt lat="44.98470501176968" lon="-0.6202547952526621"><ele>10.0</ele><time>2026-03-31T13:06:03.988Z</time></trkpt><trkpt lat="44.98469062024328" lon="-0.6201595262832525"><ele>10.0</ele><time>2026-03-31T13:06:09.988Z</time></trkpt><trkpt lat="44.98467923115949" lon="-0.6200566219697444"><ele>10.0</ele><time>2026-03-31T13:06:15.988Z</time></trkpt><trkpt lat="44.98466722894263" lon="-0.6199540791280592"><ele>10.0</ele><time>2026-03-31T13:06:21.988Z</time></trkpt><trkpt lat="44.98465545084817" lon="-0.6198529963792233"><ele>10.0</ele><time>2026-03-31T13:06:27.988Z</time></trkpt><trkpt lat="44.984646145881584" lon="-0.619754235578223"><ele>10.285714285714285</ele><time>2026-03-31T13:06:33.988Z</time></trkpt><trkpt lat="44.984635622248156" lon="-0.6196531331207136"><ele>10.571428571428571</ele><time>2026-03-31T13:06:39.988Z</time></trkpt><trkpt lat="44.98462273552958" lon="-0.619558742101737"><ele>10.857142857142858</ele><time>2026-03-31T13:06:45.988Z</time></trkpt><trkpt lat="44.98461410530141" lon="-0.6194578007512397"><ele>11.142857142857142</ele><time>2026-03-31T13:06:51.988Z</time></trkpt><trkpt lat="44.98460985575314" lon="-0.6193551281467936"><ele>11.428571428571429</ele><time>2026-03-31T13:06:57.988Z</time></trkpt><trkpt lat="44.984606982691595" lon="-0.6192518406873447"><ele>11.714285714285714</ele><time>2026-03-31T13:07:03.988Z</time></trkpt><trkpt lat="44.98460670274726" lon="-0.6191607359694672"><ele>12.0</ele><time>2026-03-31T13:07:09.988Z</time></trkpt><trkpt lat="44.984604222607516" lon="-0.6190519729385334"><ele>12.142857142857142</ele><time>2026-03-31T13:07:15.988Z</time></trkpt><trkpt lat="44.98459861332087" lon="-0.618949122552663"><ele>12.285714285714285</ele><time>2026-03-31T13:07:22.988Z</time></trkpt><trkpt lat="44.98459786596607" lon="-0.6188487133897579"><ele>12.428571428571427</ele><time>2026-03-31T13:07:28.989Z</time></trkpt><trkpt lat="44.98459321693544" lon="-0.6187438092130214"><ele>12.571428571428571</ele><time>2026-03-31T13:07:34.989Z</time></trkpt><trkpt lat="44.98459200401179" lon="-0.6186376465192339"><ele>12.714285714285715</ele><time>2026-03-31T13:07:40.989Z</time></trkpt><trkpt lat="44.98458483732675" lon="-0.61854663596871"><ele>12.857142857142856</ele><time>2026-03-31T13:07:46.989Z</time></trkpt><trkpt lat="44.98459207792116" lon="-0.6184486080141736"><ele>13.0</ele><time>2026-03-31T13:07:52.989Z</time></trkpt><trkpt lat="44.984596519864745" lon="-0.618354227308831"><ele>13.0</ele><time>2026-03-31T13:07:58.989Z</time></trkpt><trkpt lat="44.98459934361636" lon="-0.6182645456246103"><ele>13.0</ele><time>2026-03-31T13:08:04.989Z</time></trkpt><trkpt lat="44.98459656551807" lon="-0.618171187188252"><ele>13.0</ele><time>2026-03-31T13:08:09.989Z</time></trkpt><trkpt lat="44.98459471520882" lon="-0.6180747986695025"><ele>13.0</ele><time>2026-03-31T13:08:15.989Z</time></trkpt><trkpt lat="44.98458785645049" lon="-0.6179726582263073"><ele>13.0</ele><time>2026-03-31T13:08:21.989Z</time></trkpt><trkpt lat="44.98458383484885" lon="-0.617872748216377"><ele>13.0</ele><time>2026-03-31T13:08:27.989Z</time></trkpt><trkpt lat="44.98457497643059" lon="-0.6177705736298547"><ele>13.0</ele><time>2026-03-31T13:08:33.989Z</time></trkpt><trkpt lat="44.98456407482755" lon="-0.6176779612241797"><ele>13.142857142857142</ele><time>2026-03-31T13:08:38.989Z</time></trkpt><trkpt lat="44.984545803882405" lon="-0.617583297300027"><ele>13.285714285714286</ele><time>2026-03-31T13:08:44.989Z</time></trkpt><trkpt lat="44.984537394128616" lon="-0.6174821461127977"><ele>13.428571428571429</ele><time>2026-03-31T13:08:50.989Z</time></trkpt><trkpt lat="44.984523291341965" lon="-0.6173755508832295"><ele>13.571428571428571</ele><time>2026-03-31T13:08:56.989Z</time></trkpt><trkpt lat="44.984512455195315" lon="-0.617279530723996"><ele>13.714285714285715</ele><time>2026-03-31T13:09:02.989Z</time></trkpt><trkpt lat="44.984501771110864" lon="-0.6171879298646965"><ele>13.857142857142858</ele><time>2026-03-31T13:09:07.989Z</time></trkpt><trkpt lat="44.984486950325014" lon="-0.6170895090259411"><ele>14.0</ele><time>2026-03-31T13:09:13.989Z</time></trkpt><trkpt lat="44.984473570244845" lon="-0.6169907401203215"><ele>13.714285714285714</ele><time>2026-03-31T13:09:19.989Z</time></trkpt><trkpt lat="44.984463119586394" lon="-0.6168953470020107"><ele>13.428571428571429</ele><time>2026-03-31T13:09:25.989Z</time></trkpt><trkpt lat="44.984447302238635" lon="-0.6168064900704703"><ele>13.142857142857142</ele><time>2026-03-31T13:09:30.988Z</time></trkpt><trkpt lat="44.984431800093894" lon="-0.6167008303717346"><ele>12.857142857142858</ele><time>2026-03-31T13:09:37.988Z</time></trkpt><trkpt lat="44.98441198723664" lon="-0.616608127463334"><ele>12.571428571428571</ele><time>2026-03-31T13:09:42.988Z</time></trkpt><trkpt lat="44.9843973474825" lon="-0.6165079150332071"><ele>12.285714285714285</ele><time>2026-03-31T13:09:48.988Z</time></trkpt><trkpt lat="44.98440053268907" lon="-0.6164167902438896"><ele>12.0</ele><time>2026-03-31T13:09:54.988Z</time></trkpt><trkpt lat="44.98437933766273" lon="-0.6163279331259756"><ele>11.999999999999998</ele><time>2026-03-31T13:09:59.988Z</time></trkpt><trkpt lat="44.98435556508063" lon="-0.61622009450107"><ele>12.0</ele><time>2026-03-31T13:10:05.988Z</time></trkpt><trkpt lat="44.98433952634053" lon="-0.6161202832386392"><ele>12.0</ele><time>2026-03-31T13:10:11.988Z</time></trkpt><trkpt lat="44.9843196200493" lon="-0.6160157693171788"><ele>12.0</ele><time>2026-03-31T13:10:17.988Z</time></trkpt><trkpt lat="44.98430290232314" lon="-0.6159179854559649"><ele>12.0</ele><time>2026-03-31T13:10:23.988Z</time></trkpt><trkpt lat="44.984279044103495" lon="-0.6158187475141779"><ele>11.999999999999998</ele><time>2026-03-31T13:10:29.988Z</time></trkpt><trkpt lat="44.98426352111486" lon="-0.6157156598731927"><ele>12.0</ele><time>2026-03-31T13:10:35.988Z</time></trkpt><trkpt lat="44.984247158508076" lon="-0.6156190855826078"><ele>11.999999999999998</ele><time>2026-03-31T13:10:41.988Z</time></trkpt><trkpt lat="44.98422803427899" lon="-0.6155237994613977"><ele>12.0</ele><time>2026-03-31T13:10:47.988Z</time></trkpt><trkpt lat="44.984208367505104" lon="-0.6154272711069041"><ele>12.0</ele><time>2026-03-31T13:10:53.988Z</time></trkpt><trkpt lat="44.98418787874409" lon="-0.6153413332783878"><ele>12.0</ele><time>2026-03-31T13:10:58.988Z</time></trkpt><trkpt lat="44.984165964664385" lon="-0.6152436885305873"><ele>12.0</ele><time>2026-03-31T13:11:04.988Z</time></trkpt><trkpt lat="44.984141996476126" lon="-0.6151471256332268"><ele>11.999999999999998</ele><time>2026-03-31T13:11:10.988Z</time></trkpt><trkpt lat="44.98412158235149" lon="-0.615062774097953"><ele>12.0</ele><time>2026-03-31T13:11:15.988Z</time></trkpt><trkpt lat="44.984101322174816" lon="-0.6149752358907187"><ele>11.857142857142856</ele><time>2026-03-31T13:11:20.988Z</time></trkpt><trkpt lat="44.98407947804856" lon="-0.6148853329422939"><ele>11.714285714285714</ele><time>2026-03-31T13:11:26.988Z</time></trkpt><trkpt lat="44.98405934267336" lon="-0.6147972067519201"><ele>11.571428571428571</ele><time>2026-03-31T13:11:32.988Z</time></trkpt><trkpt lat="44.984033531780504" lon="-0.614714920458857"><ele>11.428571428571427</ele><time>2026-03-31T13:11:37.988Z</time></trkpt><trkpt lat="44.98401134608877" lon="-0.6146243107973839"><ele>11.285714285714285</ele><time>2026-03-31T13:11:43.988Z</time></trkpt><trkpt lat="44.98398789910916" lon="-0.6145277871405973"><ele>11.142857142857142</ele><time>2026-03-31T13:11:50.987Z</time></trkpt><trkpt lat="44.98396760316183" lon="-0.6144322873907846"><ele>11.0</ele><time>2026-03-31T13:11:56.987Z</time></trkpt><trkpt lat="44.98394120614853" lon="-0.6143425666149923"><ele>11.285714285714286</ele><time>2026-03-31T13:12:02.987Z</time></trkpt><trkpt lat="44.98391851154101" lon="-0.6142334917713878"><ele>11.571428571428571</ele><time>2026-03-31T13:12:09.987Z</time></trkpt><trkpt lat="44.983895034338026" lon="-0.6141403488656652"><ele>11.857142857142858</ele><time>2026-03-31T13:12:15.987Z</time></trkpt><trkpt lat="44.9838740532254" lon="-0.6140452816949054"><ele>12.142857142857142</ele><time>2026-03-31T13:12:21.988Z</time></trkpt><trkpt lat="44.98385636929333" lon="-0.6139522381237348"><ele>12.428571428571429</ele><time>2026-03-31T13:12:27.988Z</time></trkpt><trkpt lat="44.983832768584044" lon="-0.6138589652844489"><ele>12.714285714285714</ele><time>2026-03-31T13:12:33.988Z</time></trkpt><trkpt lat="44.98380934252406" lon="-0.6137641606563732"><ele>13.0</ele><time>2026-03-31T13:12:39.988Z</time></trkpt><trkpt lat="44.98377757385819" lon="-0.6136647743385709"><ele>12.714285714285714</ele><time>2026-03-31T13:12:45.988Z</time></trkpt><trkpt lat="44.98375708400987" lon="-0.6135752956839968"><ele>12.428571428571429</ele><time>2026-03-31T13:12:51.988Z</time></trkpt><trkpt lat="44.983735325644986" lon="-0.6134863759301652"><ele>12.142857142857142</ele><time>2026-03-31T13:12:57.988Z</time></trkpt><trkpt lat="44.98371351033478" lon="-0.6133974967718983"><ele>11.857142857142858</ele><time>2026-03-31T13:13:03.988Z</time></trkpt><trkpt lat="44.98368905481654" lon="-0.6133023914602362"><ele>11.571428571428571</ele><time>2026-03-31T13:13:09.988Z</time></trkpt><trkpt lat="44.98366492860677" lon="-0.6132196550866533"><ele>11.285714285714286</ele><time>2026-03-31T13:13:14.988Z</time></trkpt><trkpt lat="44.983642930583294" lon="-0.6131266624853816"><ele>11.0</ele><time>2026-03-31T13:13:20.988Z</time></trkpt><trkpt lat="44.98361893157364" lon="-0.6130257619157934"><ele>11.0</ele><time>2026-03-31T13:13:26.988Z</time></trkpt><trkpt lat="44.98359164613706" lon="-0.6129319083429058"><ele>11.0</ele><time>2026-03-31T13:13:33.988Z</time></trkpt><trkpt lat="44.983561181571226" lon="-0.6128502438232266"><ele>11.0</ele><time>2026-03-31T13:13:38.988Z</time></trkpt><trkpt lat="44.98353688571643" lon="-0.6127556721599026"><ele>11.0</ele><time>2026-03-31T13:13:44.987Z</time></trkpt><trkpt lat="44.98350526378663" lon="-0.6126661298721532"><ele>11.0</ele><time>2026-03-31T13:13:50.988Z</time></trkpt><trkpt lat="44.983475841230096" lon="-0.6125864246156519"><ele>11.0</ele><time>2026-03-31T13:13:55.987Z</time></trkpt><trkpt lat="44.98344195956017" lon="-0.6125017773329178"><ele>11.0</ele><time>2026-03-31T13:14:01.987Z</time></trkpt><trkpt lat="44.983420914762235" lon="-0.6124111006754244"><ele>10.857142857142858</ele><time>2026-03-31T13:14:07.987Z</time></trkpt><trkpt lat="44.98338515119177" lon="-0.6123324832124349"><ele>10.714285714285714</ele><time>2026-03-31T13:14:12.987Z</time></trkpt><trkpt lat="44.98335020843669" lon="-0.6122534760609454"><ele>10.571428571428571</ele><time>2026-03-31T13:14:17.987Z</time></trkpt><trkpt lat="44.983326600797426" lon="-0.6121691745309694"><ele>10.428571428571429</ele><time>2026-03-31T13:14:22.987Z</time></trkpt><trkpt lat="44.98329608925581" lon="-0.6120709677076586"><ele>10.285714285714286</ele><time>2026-03-31T13:14:28.987Z</time></trkpt><trkpt lat="44.983272576613906" lon="-0.6119874997731667"><ele>10.142857142857142</ele><time>2026-03-31T13:14:33.987Z</time></trkpt><trkpt lat="44.98325686865725" lon="-0.6118952498412622"><ele>10.0</ele><time>2026-03-31T13:14:39.987Z</time></trkpt><trkpt lat="44.98322783270587" lon="-0.6117984640426555"><ele>9.857142857142858</ele><time>2026-03-31T13:14:45.987Z</time></trkpt><trkpt lat="44.983203994551715" lon="-0.6117001856146873"><ele>9.714285714285715</ele><time>2026-03-31T13:14:51.987Z</time></trkpt><trkpt lat="44.98318069763377" lon="-0.6116046971627815"><ele>9.571428571428573</ele><time>2026-03-31T13:14:57.987Z</time></trkpt><trkpt lat="44.98316278719051" lon="-0.611518464445646"><ele>9.428571428571429</ele><time>2026-03-31T13:15:02.987Z</time></trkpt><trkpt lat="44.98314663679049" lon="-0.6114200509549335"><ele>9.285714285714286</ele><time>2026-03-31T13:15:08.987Z</time></trkpt><trkpt lat="44.983130541562694" lon="-0.6113249994826224"><ele>9.142857142857144</ele><time>2026-03-31T13:15:14.987Z</time></trkpt><trkpt lat="44.98311619711098" lon="-0.6112379290479163"><ele>9.0</ele><time>2026-03-31T13:15:19.987Z</time></trkpt><trkpt lat="44.983101068711896" lon="-0.6111378099670725"><ele>9.000000000000002</ele><time>2026-03-31T13:15:25.987Z</time></trkpt><trkpt lat="44.98308910909932" lon="-0.6110332262960254"><ele>9.0</ele><time>2026-03-31T13:15:31.987Z</time></trkpt><trkpt lat="44.98307246153897" lon="-0.610937064353209"><ele>9.0</ele><time>2026-03-31T13:15:37.987Z</time></trkpt><trkpt lat="44.983055058733505" lon="-0.6108302101575385"><ele>9.0</ele><time>2026-03-31T13:15:43.987Z</time></trkpt><trkpt lat="44.98303876046069" lon="-0.6107252929324748"><ele>9.0</ele><time>2026-03-31T13:15:49.987Z</time></trkpt><trkpt lat="44.983031552779664" lon="-0.6106268291405018"><ele>9.000000000000002</ele><time>2026-03-31T13:15:55.987Z</time></trkpt><trkpt lat="44.98301814711806" lon="-0.6105213019980194"><ele>9.0</ele><time>2026-03-31T13:16:01.987Z</time></trkpt><trkpt lat="44.983008498307925" lon="-0.6104232388654696"><ele>9.000000000000002</ele><time>2026-03-31T13:16:07.987Z</time></trkpt><trkpt lat="44.983000625628925" lon="-0.610333570115029"><ele>9.0</ele><time>2026-03-31T13:16:12.987Z</time></trkpt><trkpt lat="44.982992569826095" lon="-0.6102292831569306"><ele>9.0</ele><time>2026-03-31T13:16:18.987Z</time></trkpt><trkpt lat="44.98299068015052" lon="-0.6101374000354248"><ele>9.0</ele><time>2026-03-31T13:16:23.987Z</time></trkpt><trkpt lat="44.982984854544135" lon="-0.6100360426371761"><ele>9.0</ele><time>2026-03-31T13:16:29.987Z</time></trkpt><trkpt lat="44.98297414043777" lon="-0.6099269867898156"><ele>9.000000000000002</ele><time>2026-03-31T13:16:35.987Z</time></trkpt><trkpt lat="44.98296973129444" lon="-0.6098316085046742"><ele>9.0</ele><time>2026-03-31T13:16:41.987Z</time></trkpt><trkpt lat="44.98296079128873" lon="-0.6097231271362832"><ele>9.000000000000002</ele><time>2026-03-31T13:16:47.987Z</time></trkpt><trkpt lat="44.982952114866436" lon="-0.6096213485255727"><ele>9.0</ele><time>2026-03-31T13:16:53.987Z</time></trkpt><trkpt lat="44.9829421521722" lon="-0.6095166930692585"><ele>9.0</ele><time>2026-03-31T13:16:59.987Z</time></trkpt><trkpt lat="44.982933472882536" lon="-0.6094261691254433"><ele>9.0</ele><time>2026-03-31T13:17:04.987Z</time></trkpt><trkpt lat="44.98292854879451" lon="-0.6093219724163896"><ele>9.0</ele><time>2026-03-31T13:17:10.987Z</time></trkpt><trkpt lat="44.98292273135974" lon="-0.6092195341837467"><ele>9.000000000000002</ele><time>2026-03-31T13:17:16.987Z</time></trkpt><trkpt lat="44.98291078609653" lon="-0.6091280735058017"><ele>9.0</ele><time>2026-03-31T13:17:21.987Z</time></trkpt><trkpt lat="44.982903894920824" lon="-0.6090242898368796"><ele>9.000000000000002</ele><time>2026-03-31T13:17:27.987Z</time></trkpt><trkpt lat="44.98289760126272" lon="-0.6089287234526902"><ele>9.0</ele><time>2026-03-31T13:17:32.987Z</time></trkpt><trkpt lat="44.98288406149946" lon="-0.6088409672840961"><ele>9.0</ele><time>2026-03-31T13:17:37.987Z</time></trkpt><trkpt lat="44.98287062986653" lon="-0.6087478586902775"><ele>9.0</ele><time>2026-03-31T13:17:42.987Z</time></trkpt><trkpt lat="44.982859549266244" lon="-0.6086455358134885"><ele>9.0</ele><time>2026-03-31T13:17:48.987Z</time></trkpt><trkpt lat="44.982851382344535" lon="-0.608542482117384"><ele>9.000000000000002</ele><time>2026-03-31T13:17:54.986Z</time></trkpt><trkpt lat="44.982840806425976" lon="-0.6084495896470259"><ele>9.0</ele><time>2026-03-31T13:17:59.986Z</time></trkpt><trkpt lat="44.982830168872674" lon="-0.6083576729267747"><ele>8.857142857142858</ele><time>2026-03-31T13:18:04.986Z</time></trkpt><trkpt lat="44.98281087067568" lon="-0.6082532573867493"><ele>8.714285714285715</ele><time>2026-03-31T13:18:10.987Z</time></trkpt><trkpt lat="44.982794494216485" lon="-0.6081510486331777"><ele>8.571428571428571</ele><time>2026-03-31T13:18:16.987Z</time></trkpt><trkpt lat="44.98278351887049" lon="-0.6080551493997466"><ele>8.428571428571429</ele><time>2026-03-31T13:18:21.987Z</time></trkpt><trkpt lat="44.98277041525433" lon="-0.607962576254381"><ele>8.285714285714285</ele><time>2026-03-31T13:18:26.987Z</time></trkpt><trkpt lat="44.98275744264227" lon="-0.6078670759629825"><ele>8.142857142857142</ele><time>2026-03-31T13:18:32.987Z</time></trkpt><trkpt lat="44.98273942256431" lon="-0.6077789138592752"><ele>8.0</ele><time>2026-03-31T13:18:37.987Z</time></trkpt><trkpt lat="44.98272515047259" lon="-0.6076749340389008"><ele>8.0</ele><time>2026-03-31T13:18:42.987Z</time></trkpt><trkpt lat="44.98270508694397" lon="-0.6075747147692255"><ele>7.999999999999999</ele><time>2026-03-31T13:18:47.987Z</time></trkpt><trkpt lat="44.98268790223791" lon="-0.6074738980776129"><ele>8.0</ele><time>2026-03-31T13:18:52.987Z</time></trkpt><trkpt lat="44.98265551598701" lon="-0.6073770430622379"><ele>8.0</ele><time>2026-03-31T13:18:57.987Z</time></trkpt><trkpt lat="44.982636248225226" lon="-0.6072839914914797"><ele>7.999999999999999</ele><time>2026-03-31T13:19:02.987Z</time></trkpt><trkpt lat="44.98262022334" lon="-0.6071881744720895"><ele>8.0</ele><time>2026-03-31T13:19:07.987Z</time></trkpt><trkpt lat="44.982603583633306" lon="-0.6070801358266068"><ele>8.0</ele><time>2026-03-31T13:19:12.987Z</time></trkpt><trkpt lat="44.98259064223714" lon="-0.6069828687800046"><ele>8.428571428571429</ele><time>2026-03-31T13:19:17.987Z</time></trkpt><trkpt lat="44.98257678520933" lon="-0.6068932026815586"><ele>8.857142857142856</ele><time>2026-03-31T13:19:22.987Z</time></trkpt><trkpt lat="44.982555271998976" lon="-0.6067965091404558"><ele>9.285714285714285</ele><time>2026-03-31T13:19:27.987Z</time></trkpt><trkpt lat="44.9825410327311" lon="-0.6067005411549617"><ele>9.714285714285714</ele><time>2026-03-31T13:19:32.987Z</time></trkpt><trkpt lat="44.98252773742142" lon="-0.6066107423254883"><ele>10.142857142857142</ele><time>2026-03-31T13:19:37.987Z</time></trkpt><trkpt lat="44.98251446857173" lon="-0.6065082649055075"><ele>10.571428571428571</ele><time>2026-03-31T13:19:43.987Z</time></trkpt><trkpt lat="44.98250729928981" lon="-0.6064105651116829"><ele>11.0</ele><time>2026-03-31T13:19:49.987Z</time></trkpt><trkpt lat="44.98249774350509" lon="-0.6063168252379295"><ele>11.0</ele><time>2026-03-31T13:19:54.987Z</time></trkpt><trkpt lat="44.98248767376401" lon="-0.6062090901317146"><ele>11.0</ele><time>2026-03-31T13:20:00.986Z</time></trkpt><trkpt lat="44.98248397681574" lon="-0.6061158286879528"><ele>11.0</ele><time>2026-03-31T13:20:05.986Z</time></trkpt><trkpt lat="44.98246656383143" lon="-0.6060114114378291"><ele>11.0</ele><time>2026-03-31T13:20:11.986Z</time></trkpt><trkpt lat="44.982460087643936" lon="-0.6059043427924312"><ele>11.0</ele><time>2026-03-31T13:20:17.986Z</time></trkpt><trkpt lat="44.98243899286902" lon="-0.6058065837746964"><ele>11.0</ele><time>2026-03-31T13:20:23.986Z</time></trkpt><trkpt lat="44.982433348529824" lon="-0.6057176298639415"><ele>11.0</ele><time>2026-03-31T13:20:28.986Z</time></trkpt><trkpt lat="44.982427165194416" lon="-0.6056238767868563"><ele>10.571428571428571</ele><time>2026-03-31T13:20:33.986Z</time></trkpt><trkpt lat="44.982414543417335" lon="-0.6055212655094063"><ele>10.142857142857142</ele><time>2026-03-31T13:20:39.986Z</time></trkpt><trkpt lat="44.98240177668449" lon="-0.6054309269537029"><ele>9.714285714285714</ele><time>2026-03-31T13:20:44.986Z</time></trkpt><trkpt lat="44.98238916123193" lon="-0.6053401968741471"><ele>9.285714285714285</ele><time>2026-03-31T13:20:49.986Z</time></trkpt><trkpt lat="44.982368602234445" lon="-0.6052405842868208"><ele>8.857142857142856</ele><time>2026-03-31T13:20:55.986Z</time></trkpt><trkpt lat="44.9823496126946" lon="-0.6051527352983379"><ele>8.428571428571429</ele><time>2026-03-31T13:21:00.986Z</time></trkpt><trkpt lat="44.9823408207452" lon="-0.6050599190345194"><ele>8.0</ele><time>2026-03-31T13:21:05.986Z</time></trkpt><trkpt lat="44.98233619750598" lon="-0.6049571447671727"><ele>8.0</ele><time>2026-03-31T13:21:11.986Z</time></trkpt><trkpt lat="44.982324812158495" lon="-0.6048437602114907"><ele>7.999999999999999</ele><time>2026-03-31T13:21:17.986Z</time></trkpt><trkpt lat="44.98231275281999" lon="-0.6047472297204961"><ele>8.0</ele><time>2026-03-31T13:21:23.986Z</time></trkpt><trkpt lat="44.98231343867569" lon="-0.6046517404808676"><ele>8.0</ele><time>2026-03-31T13:21:28.986Z</time></trkpt><trkpt lat="44.98230075758972" lon="-0.6045594827889417"><ele>7.999999999999999</ele><time>2026-03-31T13:21:33.986Z</time></trkpt><trkpt lat="44.982285209412595" lon="-0.6044564238834509"><ele>8.0</ele><time>2026-03-31T13:21:39.986Z</time></trkpt><trkpt lat="44.98227212885094" lon="-0.604353019743263"><ele>8.0</ele><time>2026-03-31T13:21:45.986Z</time></trkpt><trkpt lat="44.98226136748803" lon="-0.6042588528859042"><ele>8.428571428571429</ele><time>2026-03-31T13:21:51.986Z</time></trkpt><trkpt lat="44.982333236874354" lon="-0.6041998254391167"><ele>8.857142857142856</ele><time>2026-03-31T13:22:13.986Z</time></trkpt><trkpt lat="44.982325494887846" lon="-0.6041033892115021"><ele>9.285714285714285</ele><time>2026-03-31T13:22:19.986Z</time></trkpt><trkpt lat="44.982354587627356" lon="-0.604018730603956"><ele>9.714285714285714</ele><time>2026-03-31T13:22:26.986Z</time></trkpt><trkpt lat="44.98242509732829" lon="-0.6039952467133232"><ele>10.142857142857142</ele><time>2026-03-31T13:22:36.986Z</time></trkpt><trkpt lat="44.982446504054224" lon="-0.6039110589063131"><ele>10.571428571428571</ele><time>2026-03-31T13:22:42.986Z</time></trkpt><trkpt lat="44.98246658872797" lon="-0.6038254875950386"><ele>11.0</ele><time>2026-03-31T13:22:47.986Z</time></trkpt><trkpt lat="44.98248483589591" lon="-0.6037293129159255"><ele>11.0</ele><time>2026-03-31T13:22:54.986Z</time></trkpt><trkpt lat="44.982476783513455" lon="-0.6036206042174904"><ele>11.0</ele><time>2026-03-31T13:23:02.986Z</time></trkpt><trkpt lat="44.98246749389121" lon="-0.6035271131431105"><ele>11.0</ele><time>2026-03-31T13:23:06.986Z</time></trkpt><trkpt lat="44.98247434738546" lon="-0.6034268062561334"><ele>11.0</ele><time>2026-03-31T13:23:10.986Z</time></trkpt><trkpt lat="44.98250345309051" lon="-0.6033254176229826"><ele>11.0</ele><time>2026-03-31T13:23:13.986Z</time></trkpt><trkpt lat="44.982531045836694" lon="-0.6032375865954168"><ele>11.0</ele><time>2026-03-31T13:23:16.986Z</time></trkpt><trkpt lat="44.982548681646456" lon="-0.603134349874451"><ele>11.0</ele><time>2026-03-31T13:23:19.986Z</time></trkpt><trkpt lat="44.982522274332155" lon="-0.6032502330205025"><ele>8.0</ele><time>2026-03-31T13:23:25.986Z</time></trkpt><trkpt lat="44.982502874349684" lon="-0.6033413276209786"><ele>11.0</ele><time>2026-03-31T13:23:30.986Z</time></trkpt><trkpt lat="44.98252462027588" lon="-0.6032396295379953"><ele>8.0</ele><time>2026-03-31T13:23:34.986Z</time></trkpt><trkpt lat="44.98253525504473" lon="-0.6031461114345338"><ele>8.0</ele><time>2026-03-31T13:23:37.986Z</time></trkpt></trkseg></trk></gpx>